Station Historical Data
Daily Summary for March 14, 2011 Units:  Both    English   Metric
« Previous Day
Next Day »
Daily Weekly Monthly Yearly Custom
  High: Low: Average:
Temperature: 64.7 °F /  18.2 °C 47.9 °F /  8.8 °C 54.5 °F /  12.5 °C
Dew Point: 57.5 °F /  14.2 °C 46.2 °F /  7.9 °C 51.7 °F /  10.9 °C
Humidity: 96% 71% 91%
Wind Speed: 15.0mph /  24.1km/h - 5.3mph /  8.5km/h
Wind Gust: 21.0mph /  33.8km/h - -
Wind- - ESE
Pressure: 30.17 in /  1021.6 hPa 29.94 in /  1013.8 hPa -
Precipitation: 0.53 in /  13.46 mm    
Historical Graphs
 
 
Tabular Data for March 14, 2011
Time Temperature Dew Point Pressure Wind Wind Speed Wind Gust Humidity Rainfall Rate (Hourly) Conditions
00:00 56.7 °F /  13.7 °C 47.8 °F /  8.8 °C 30.16in /  1021.2hPa ENE 3.0mph /  4.8km/h 3.0mph /  4.8km/h 72% 0.00in /  0mm
00:01 56.7 °F /  13.7 °C 47.8 °F /  8.8 °C 30.16in /  1021.2hPa NE 2.0mph /  3.2km/h 3.0mph /  4.8km/h 72% 0.00in /  0mm
00:05 56.6 °F /  13.7 °C 47.7 °F /  8.7 °C 30.16in /  1021.2hPa NE 2.0mph /  3.2km/h 4.0mph /  6.4km/h 72% 0.00in /  0mm
00:06 56.6 °F /  13.7 °C 47.7 °F /  8.7 °C 30.16in /  1021.2hPa NE 4.0mph /  6.4km/h 4.0mph /  6.4km/h 72% 0.00in /  0mm
00:07 56.6 °F /  13.7 °C 47.7 °F /  8.7 °C 30.16in /  1021.2hPa NE 2.0mph /  3.2km/h 6.0mph /  9.7km/h 72% 0.00in /  0mm
00:11 56.5 °F /  13.6 °C 47.6 °F /  8.7 °C 30.16in /  1021.2hPa NE 4.0mph /  6.4km/h 5.0mph /  8km/h 72% 0.00in /  0mm
00:12 56.5 °F /  13.6 °C 47.6 °F /  8.7 °C 30.16in /  1021.2hPa East 4.0mph /  6.4km/h 5.0mph /  8km/h 72% 0.00in /  0mm
00:16 56.5 °F /  13.6 °C 47.6 °F /  8.7 °C 30.15in /  1020.9hPa NE 3.0mph /  4.8km/h 6.0mph /  9.7km/h 72% 0.00in /  0mm
00:17 56.4 °F /  13.6 °C 47.1 °F /  8.4 °C 30.15in /  1020.9hPa NE 5.0mph /  8km/h 7.0mph /  11.3km/h 71% 0.00in /  0mm
00:22 56.3 °F /  13.5 °C 47.4 °F /  8.6 °C 30.16in /  1021.2hPa ENE 2.0mph /  3.2km/h 5.0mph /  8km/h 72% 0.00in /  0mm
00:28 56.2 °F /  13.4 °C 47.3 °F /  8.5 °C 30.16in /  1021.2hPa NE 3.0mph /  4.8km/h 6.0mph /  9.7km/h 72% 0.00in /  0mm
00:33 55.9 °F /  13.3 °C 47.4 °F /  8.6 °C 30.16in /  1021.2hPa NE 4.0mph /  6.4km/h 5.0mph /  8km/h 73% 0.00in /  0mm
00:34 55.9 °F /  13.3 °C 47.4 °F /  8.6 °C 30.16in /  1021.2hPa NNE 2.0mph /  3.2km/h 5.0mph /  8km/h 73% 0.00in /  0mm
00:36 55.7 °F /  13.2 °C 47.5 °F /  8.6 °C 30.16in /  1021.2hPa NNE 2.0mph /  3.2km/h 5.0mph /  8km/h 74% 0.00in /  0mm
00:39 55.5 °F /  13.1 °C 48.1 °F /  8.9 °C 30.16in /  1021.2hPa North 4.0mph /  6.4km/h 6.0mph /  9.7km/h 76% 0.00in /  0mm
00:44 54.9 °F /  12.7 °C 48.5 °F /  9.2 °C 30.17in /  1021.6hPa NNW 6.0mph /  9.7km/h 6.0mph /  9.7km/h 79% 0.00in /  0mm
00:45 54.6 °F /  12.6 °C 48.6 °F /  9.2 °C 30.16in /  1021.2hPa NNE 4.0mph /  6.4km/h 6.0mph /  9.7km/h 80% 0.68in /  17.27mm
00:49 53.8 °F /  12.1 °C 48.8 °F /  9.3 °C 30.16in /  1021.2hPa NNE 3.0mph /  4.8km/h 5.0mph /  8km/h 83% 0.43in /  10.92mm
00:51 53.4 °F /  11.9 °C 49.0 °F /  9.4 °C 30.16in /  1021.2hPa NNE 2.0mph /  3.2km/h 5.0mph /  8km/h 85% 0.29in /  7.37mm
00:54 53.1 °F /  11.7 °C 49.0 °F /  9.4 °C 30.16in /  1021.2hPa ENE 2.0mph /  3.2km/h 3.0mph /  4.8km/h 86% 0.12in /  3.05mm
00:55 53.0 °F /  11.7 °C 48.9 °F /  9.4 °C 30.16in /  1021.2hPa NE 3.0mph /  4.8km/h 4.0mph /  6.4km/h 86% 0.10in /  2.54mm
00:56 52.8 °F /  11.6 °C 49.0 °F /  9.4 °C 30.16in /  1021.2hPa ENE 2.0mph /  3.2km/h 4.0mph /  6.4km/h 87% 0.07in /  1.78mm
00:59 52.6 °F /  11.4 °C 48.8 °F /  9.3 °C 30.15in /  1020.9hPa East 3.0mph /  4.8km/h 5.0mph /  8km/h 87% 0.06in /  1.52mm
01:00 52.6 °F /  11.4 °C 48.8 °F /  9.3 °C 30.15in /  1020.9hPa NE 3.0mph /  4.8km/h 6.0mph /  9.7km/h 87% 0.05in /  1.27mm
01:04 52.5 °F /  11.4 °C 48.8 °F /  9.3 °C 30.15in /  1020.9hPa East 5.0mph /  8km/h 6.0mph /  9.7km/h 87% 0.04in /  1.02mm
01:09 52.5 °F /  11.4 °C 48.8 °F /  9.3 °C 30.15in /  1020.9hPa East 3.0mph /  4.8km/h 6.0mph /  9.7km/h 87% 0.00in /  0mm
01:14 52.5 °F /  11.4 °C 49.0 °F /  9.4 °C 30.15in /  1020.9hPa NNE 4.0mph /  6.4km/h 4.0mph /  6.4km/h 88% 0.00in /  0mm
01:15 52.5 °F /  11.4 °C 49.0 °F /  9.4 °C 30.15in /  1020.9hPa North 3.0mph /  4.8km/h 4.0mph /  6.4km/h 88% 0.00in /  0mm
01:19 52.2 °F /  11.2 °C 49.1 °F /  9.5 °C 30.15in /  1020.9hPa NE 4.0mph /  6.4km/h 6.0mph /  9.7km/h 89% 0.00in /  0mm
01:20 52.2 °F /  11.2 °C 49.1 °F /  9.5 °C 30.15in /  1020.9hPa East 2.0mph /  3.2km/h 6.0mph /  9.7km/h 89% 0.00in /  0mm
01:25 52.0 °F /  11.1 °C 49.2 °F /  9.6 °C 30.14in /  1020.5hPa ENE 1.0mph /  1.6km/h 4.0mph /  6.4km/h 90% 0.00in /  0mm
01:30 51.9 °F /  11.1 °C 49.1 °F /  9.5 °C 30.14in /  1020.5hPa NE 3.0mph /  4.8km/h 5.0mph /  8km/h 90% 0.00in /  0mm
01:33 51.8 °F /  11 °C 49.0 °F /  9.4 °C 30.14in /  1020.5hPa NE 3.0mph /  4.8km/h 5.0mph /  8km/h 90% 0.00in /  0mm
01:35 51.8 °F /  11 °C 49.3 °F /  9.6 °C 30.13in /  1020.2hPa NE 5.0mph /  8km/h 5.0mph /  8km/h 91% 0.00in /  0mm
01:38 51.8 °F /  11 °C 49.3 °F /  9.6 °C 30.13in /  1020.2hPa East 2.0mph /  3.2km/h 5.0mph /  8km/h 91% 0.00in /  0mm
01:43 51.7 °F /  10.9 °C 49.2 °F /  9.6 °C 30.13in /  1020.2hPa NNE 3.0mph /  4.8km/h 5.0mph /  8km/h 91% 0.00in /  0mm
01:48 51.6 °F /  10.9 °C 49.4 °F /  9.7 °C 30.13in /  1020.2hPa ENE 1.0mph /  1.6km/h 4.0mph /  6.4km/h 92% 0.00in /  0mm
01:53 51.6 °F /  10.9 °C 49.4 °F /  9.7 °C 30.13in /  1020.2hPa East 3.0mph /  4.8km/h 4.0mph /  6.4km/h 92% 0.00in /  0mm
01:54 51.6 °F /  10.9 °C 49.4 °F /  9.7 °C 30.13in /  1020.2hPa East 2.0mph /  3.2km/h 4.0mph /  6.4km/h 92% 0.00in /  0mm
01:59 51.5 °F /  10.8 °C 49.5 °F /  9.7 °C 30.13in /  1020.2hPa NE 2.0mph /  3.2km/h 5.0mph /  8km/h 93% 0.00in /  0mm
02:04 51.5 °F /  10.8 °C 49.5 °F /  9.7 °C 30.13in /  1020.2hPa ENE 1.0mph /  1.6km/h 2.0mph /  3.2km/h 93% 0.00in /  0mm
02:09 51.5 °F /  10.8 °C 49.5 °F /  9.7 °C 30.13in /  1020.2hPa ESE 3.0mph /  4.8km/h 3.0mph /  4.8km/h 93% 0.00in /  0mm
02:14 51.5 °F /  10.8 °C 49.5 °F /  9.7 °C 30.13in /  1020.2hPa ENE 2.0mph /  3.2km/h 4.0mph /  6.4km/h 93% 0.00in /  0mm
02:15 51.5 °F /  10.8 °C 49.5 °F /  9.7 °C 30.13in /  1020.2hPa East 3.0mph /  4.8km/h 4.0mph /  6.4km/h 93% 0.00in /  0mm
02:20 51.5 °F /  10.8 °C 49.5 °F /  9.7 °C 30.13in /  1020.2hPa East 2.0mph /  3.2km/h 3.0mph /  4.8km/h 93% 0.00in /  0mm
02:25 51.5 °F /  10.8 °C 49.5 °F /  9.7 °C 30.13in /  1020.2hPa East 1.0mph /  1.6km/h 2.0mph /  3.2km/h 93% 0.00in /  0mm
02:26 51.6 °F /  10.9 °C 49.7 °F /  9.8 °C 30.13in /  1020.2hPa ESE 1.0mph /  1.6km/h 2.0mph /  3.2km/h 93% 0.00in /  0mm
02:31 51.6 °F /  10.9 °C 49.7 °F /  9.8 °C 30.13in /  1020.2hPa ENE 1.0mph /  1.6km/h 2.0mph /  3.2km/h 93% 0.00in /  0mm
02:32 51.6 °F /  10.9 °C 49.7 °F /  9.8 °C 30.13in /  1020.2hPa NE 1.0mph /  1.6km/h 2.0mph /  3.2km/h 93% 0.00in /  0mm
02:36 51.5 °F /  10.8 °C 49.5 °F /  9.7 °C 30.12in /  1019.9hPa NE 2.0mph /  3.2km/h 4.0mph /  6.4km/h 93% 0.00in /  0mm
02:37 51.6 °F /  10.9 °C 49.7 °F /  9.8 °C 30.12in /  1019.9hPa NNE 3.0mph /  4.8km/h 4.0mph /  6.4km/h 93% 0.00in /  0mm
02:41 51.5 °F /  10.8 °C 49.5 °F /  9.7 °C 30.12in /  1019.9hPa NNE 3.0mph /  4.8km/h 4.0mph /  6.4km/h 93% 0.00in /  0mm
02:42 51.5 °F /  10.8 °C 49.5 °F /  9.7 °C 30.12in /  1019.9hPa NNE 2.0mph /  3.2km/h 4.0mph /  6.4km/h 93% 0.00in /  0mm
02:46 51.3 °F /  10.7 °C 49.6 °F /  9.8 °C 30.12in /  1019.9hPa NNE 2.0mph /  3.2km/h 3.0mph /  4.8km/h 94% 0.00in /  0mm
02:47 51.3 °F /  10.7 °C 49.6 °F /  9.8 °C 30.12in /  1019.9hPa NNE 2.0mph /  3.2km/h 3.0mph /  4.8km/h 94% 0.00in /  0mm
02:51 51.1 °F /  10.6 °C 49.4 °F /  9.7 °C 30.12in /  1019.9hPa NNE 2.0mph /  3.2km/h 3.0mph /  4.8km/h 94% 0.00in /  0mm
02:52 51.1 °F /  10.6 °C 49.4 °F /  9.7 °C 30.12in /  1019.9hPa NNE 2.0mph /  3.2km/h 3.0mph /  4.8km/h 94% 0.00in /  0mm
02:53 51.1 °F /  10.6 °C 49.4 °F /  9.7 °C 30.12in /  1019.9hPa NNE 3.0mph /  4.8km/h 3.0mph /  4.8km/h 94% 0.00in /  0mm
02:57 51.0 °F /  10.6 °C 49.6 °F /  9.8 °C 30.12in /  1019.9hPa NNE 3.0mph /  4.8km/h 4.0mph /  6.4km/h 95% 0.00in /  0mm
02:58 51.0 °F /  10.6 °C 49.6 °F /  9.8 °C 30.12in /  1019.9hPa NE 4.0mph /  6.4km/h 4.0mph /  6.4km/h 95% 0.00in /  0mm
03:03 50.9 °F /  10.5 °C 49.5 °F /  9.7 °C 30.12in /  1019.9hPa NE 3.0mph /  4.8km/h 4.0mph /  6.4km/h 95% 0.00in /  0mm
03:08 50.8 °F /  10.4 °C 49.4 °F /  9.7 °C 30.12in /  1019.9hPa NNE 3.0mph /  4.8km/h 4.0mph /  6.4km/h 95% 0.00in /  0mm
03:09 50.8 °F /  10.4 °C 49.4 °F /  9.7 °C 30.12in /  1019.9hPa NE 4.0mph /  6.4km/h 4.0mph /  6.4km/h 95% 0.00in /  0mm
03:14 50.8 °F /  10.4 °C 49.4 °F /  9.7 °C 30.12in /  1019.9hPa NE 5.0mph /  8km/h 5.0mph /  8km/h 95% 0.00in /  0mm
03:15 50.8 °F /  10.4 °C 49.4 °F /  9.7 °C 30.12in /  1019.9hPa ENE 1.0mph /  1.6km/h 5.0mph /  8km/h 95% 0.00in /  0mm
03:19 50.9 °F /  10.5 °C 49.5 °F /  9.7 °C 30.12in /  1019.9hPa NE 1.0mph /  1.6km/h 3.0mph /  4.8km/h 95% 0.00in /  0mm
03:20 50.9 °F /  10.5 °C 49.5 °F /  9.7 °C 30.12in /  1019.9hPa NE 1.0mph /  1.6km/h 3.0mph /  4.8km/h 95% 0.00in /  0mm
03:22 51.0 °F /  10.6 °C 49.6 °F /  9.8 °C 30.12in /  1019.9hPa North 3.0mph /  4.8km/h 3.0mph /  4.8km/h 95% 0.00in /  0mm
03:24 51.0 °F /  10.6 °C 49.6 °F /  9.8 °C 30.12in /  1019.9hPa North 2.0mph /  3.2km/h 3.0mph /  4.8km/h 95% 0.00in /  0mm
03:27 50.9 °F /  10.5 °C 49.5 °F /  9.7 °C 30.12in /  1019.9hPa NE 3.0mph /  4.8km/h 3.0mph /  4.8km/h 95% 0.00in /  0mm
03:29 50.9 °F /  10.5 °C 49.5 °F /  9.7 °C 30.12in /  1019.9hPa NE 2.0mph /  3.2km/h 3.0mph /  4.8km/h 95% 0.00in /  0mm
03:30 50.9 °F /  10.5 °C 49.5 °F /  9.7 °C 30.12in /  1019.9hPa NE 2.0mph /  3.2km/h 3.0mph /  4.8km/h 95% 0.00in /  0mm
03:34 51.0 °F /  10.6 °C 49.6 °F /  9.8 °C 30.12in /  1019.9hPa North 1.0mph /  1.6km/h 3.0mph /  4.8km/h 95% 0.00in /  0mm
03:35 51.0 °F /  10.6 °C 49.6 °F /  9.8 °C 30.12in /  1019.9hPa NNE 2.0mph /  3.2km/h 3.0mph /  4.8km/h 95% 0.00in /  0mm
03:36 51.0 °F /  10.6 °C 49.6 °F /  9.8 °C 30.12in /  1019.9hPa North 2.0mph /  3.2km/h 2.0mph /  3.2km/h 95% 0.00in /  0mm
03:39 51.0 °F /  10.6 °C 49.6 °F /  9.8 °C 30.12in /  1019.9hPa NE 3.0mph /  4.8km/h 4.0mph /  6.4km/h 95% 0.00in /  0mm
03:41 51.0 °F /  10.6 °C 49.6 °F /  9.8 °C 30.12in /  1019.9hPa NE 3.0mph /  4.8km/h 4.0mph /  6.4km/h 95% 0.00in /  0mm
03:45 51.1 °F /  10.6 °C 49.7 °F /  9.8 °C 30.12in /  1019.9hPa North 3.0mph /  4.8km/h 5.0mph /  8km/h 95% 0.00in /  0mm
03:46 51.1 °F /  10.6 °C 49.7 °F /  9.8 °C 30.12in /  1019.9hPa NNW 4.0mph /  6.4km/h 5.0mph /  8km/h 95% 0.00in /  0mm
03:51 51.0 °F /  10.6 °C 49.6 °F /  9.8 °C 30.12in /  1019.9hPa North 7.0mph /  11.3km/h 8.0mph /  12.9km/h 95% 0.00in /  0mm
03:52 51.0 °F /  10.6 °C 49.6 °F /  9.8 °C 30.12in /  1019.9hPa NNW 8.0mph /  12.9km/h 8.0mph /  12.9km/h 95% 0.00in /  0mm
03:53 51.0 °F /  10.6 °C 49.6 °F /  9.8 °C 30.12in /  1019.9hPa North 8.0mph /  12.9km/h 9.0mph /  14.5km/h 95% 0.00in /  0mm
03:57 50.9 °F /  10.5 °C 49.2 °F /  9.6 °C 30.12in /  1019.9hPa North 4.0mph /  6.4km/h 12.0mph /  19.3km/h 94% 0.00in /  0mm
03:58 51.0 °F /  10.6 °C 49.3 °F /  9.6 °C 30.12in /  1019.9hPa NNE 3.0mph /  4.8km/h 12.0mph /  19.3km/h 94% 0.00in /  0mm
04:02 51.0 °F /  10.6 °C 49.3 °F /  9.6 °C 30.12in /  1019.9hPa NNW 6.0mph /  9.7km/h 9.0mph /  14.5km/h 94% 0.00in /  0mm
04:07 51.0 °F /  10.6 °C 49.0 °F /  9.4 °C 30.12in /  1019.9hPa NNW 5.0mph /  8km/h 10.0mph /  16.1km/h 93% 0.00in /  0mm
04:09 51.1 °F /  10.6 °C 49.2 °F /  9.6 °C 30.12in /  1019.9hPa North 4.0mph /  6.4km/h 9.0mph /  14.5km/h 93% 0.00in /  0mm
04:14 51.1 °F /  10.6 °C 48.9 °F /  9.4 °C 30.12in /  1019.9hPa NNW 5.0mph /  8km/h 10.0mph /  16.1km/h 92% 0.00in /  0mm
04:19 51.1 °F /  10.6 °C 48.9 °F /  9.4 °C 30.12in /  1019.9hPa North 8.0mph /  12.9km/h 9.0mph /  14.5km/h 92% 0.00in /  0mm
04:24 51.1 °F /  10.6 °C 48.9 °F /  9.4 °C 30.12in /  1019.9hPa NNE 7.0mph /  11.3km/h 8.0mph /  12.9km/h 92% 0.00in /  0mm
04:29 51.1 °F /  10.6 °C 48.6 °F /  9.2 °C 30.12in /  1019.9hPa North 9.0mph /  14.5km/h 9.0mph /  14.5km/h 91% 0.00in /  0mm
04:30 51.1 °F /  10.6 °C 48.6 °F /  9.2 °C 30.12in /  1019.9hPa NNE 8.0mph /  12.9km/h 9.0mph /  14.5km/h 91% 0.00in /  0mm
04:33 51.1 °F /  10.6 °C 48.6 °F /  9.2 °C 30.12in /  1019.9hPa NNE 5.0mph /  8km/h 9.0mph /  14.5km/h 91% 0.00in /  0mm
04:35 51.0 °F /  10.6 °C 48.5 °F /  9.2 °C 30.11in /  1019.5hPa NE 5.0mph /  8km/h 8.0mph /  12.9km/h 91% 0.00in /  0mm
04:38 51.0 °F /  10.6 °C 48.5 °F /  9.2 °C 30.11in /  1019.5hPa NNE 8.0mph /  12.9km/h 10.0mph /  16.1km/h 91% 0.00in /  0mm
04:40 51.0 °F /  10.6 °C 48.5 °F /  9.2 °C 30.11in /  1019.5hPa NNE 7.0mph /  11.3km/h 10.0mph /  16.1km/h 91% 0.00in /  0mm
04:43 50.9 °F /  10.5 °C 48.4 °F /  9.1 °C 30.11in /  1019.5hPa NNE 10.0mph /  16.1km/h 10.0mph /  16.1km/h 91% 0.00in /  0mm
04:46 50.9 °F /  10.5 °C 48.4 °F /  9.1 °C 30.10in /  1019.2hPa North 6.0mph /  9.7km/h 10.0mph /  16.1km/h 91% 0.00in /  0mm
04:48 50.8 °F /  10.4 °C 48.0 °F /  8.9 °C 30.11in /  1019.5hPa NNE 9.0mph /  14.5km/h 12.0mph /  19.3km/h 90% 0.00in /  0mm
04:51 50.7 °F /  10.4 °C 47.9 °F /  8.8 °C 30.11in /  1019.5hPa NNE 8.0mph /  12.9km/h 12.0mph /  19.3km/h 90% 0.00in /  0mm
04:52 50.6 °F /  10.3 °C 47.8 °F /  8.8 °C 30.11in /  1019.5hPa NNE 5.0mph /  8km/h 11.0mph /  17.7km/h 90% 0.00in /  0mm
04:53 50.6 °F /  10.3 °C 47.8 °F /  8.8 °C 30.10in /  1019.2hPa NE 4.0mph /  6.4km/h 11.0mph /  17.7km/h 90% 0.00in /  0mm
04:54 50.6 °F /  10.3 °C 47.8 °F /  8.8 °C 30.10in /  1019.2hPa NE 4.0mph /  6.4km/h 11.0mph /  17.7km/h 90% 0.00in /  0mm
04:58 50.3 °F /  10.2 °C 47.8 °F /  8.8 °C 30.11in /  1019.5hPa NE 6.0mph /  9.7km/h 9.0mph /  14.5km/h 91% 0.00in /  0mm
04:59 50.3 °F /  10.2 °C 47.8 °F /  8.8 °C 30.11in /  1019.5hPa NNE 6.0mph /  9.7km/h 9.0mph /  14.5km/h 91% 0.00in /  0mm
05:04 50.1 °F /  10.1 °C 47.6 °F /  8.7 °C 30.10in /  1019.2hPa NNE 5.0mph /  8km/h 10.0mph /  16.1km/h 91% 0.00in /  0mm
05:05 50.1 °F /  10.1 °C 47.6 °F /  8.7 °C 30.10in /  1019.2hPa NNE 7.0mph /  11.3km/h 11.0mph /  17.7km/h 91% 0.00in /  0mm
05:09 50.0 °F /  10 °C 47.8 °F /  8.8 °C 30.10in /  1019.2hPa NNE 6.0mph /  9.7km/h 9.0mph /  14.5km/h 92% 0.00in /  0mm
05:10 50.0 °F /  10 °C 47.8 °F /  8.8 °C 30.10in /  1019.2hPa NE 8.0mph /  12.9km/h 9.0mph /  14.5km/h 92% 0.00in /  0mm
05:14 50.0 °F /  10 °C 47.8 °F /  8.8 °C 30.10in /  1019.2hPa NNE 8.0mph /  12.9km/h 8.0mph /  12.9km/h 92% 0.00in /  0mm
05:19 49.9 °F /  9.9 °C 47.7 °F /  8.7 °C 30.10in /  1019.2hPa NNE 9.0mph /  14.5km/h 10.0mph /  16.1km/h 92% 0.00in /  0mm
05:24 49.9 °F /  9.9 °C 47.7 °F /  8.7 °C 30.10in /  1019.2hPa NNE 5.0mph /  8km/h 9.0mph /  14.5km/h 92% 0.00in /  0mm
05:26 49.8 °F /  9.9 °C 47.6 °F /  8.7 °C 30.10in /  1019.2hPa NE 6.0mph /  9.7km/h 11.0mph /  17.7km/h 92% 0.00in /  0mm
05:30 49.8 °F /  9.9 °C 47.6 °F /  8.7 °C 30.10in /  1019.2hPa NE 5.0mph /  8km/h 9.0mph /  14.5km/h 92% 0.00in /  0mm
05:32 49.8 °F /  9.9 °C 47.6 °F /  8.7 °C 30.10in /  1019.2hPa NE 9.0mph /  14.5km/h 11.0mph /  17.7km/h 92% 0.00in /  0mm
05:36 49.8 °F /  9.9 °C 47.6 °F /  8.7 °C 30.10in /  1019.2hPa NE 5.0mph /  8km/h 10.0mph /  16.1km/h 92% 0.00in /  0mm
05:37 49.7 °F /  9.8 °C 47.5 °F /  8.6 °C 30.10in /  1019.2hPa NNE 6.0mph /  9.7km/h 9.0mph /  14.5km/h 92% 0.00in /  0mm
05:38 49.7 °F /  9.8 °C 47.5 °F /  8.6 °C 30.10in /  1019.2hPa NE 8.0mph /  12.9km/h 8.0mph /  12.9km/h 92% 0.00in /  0mm
05:43 49.7 °F /  9.8 °C 47.5 °F /  8.6 °C 30.10in /  1019.2hPa NNE 10.0mph /  16.1km/h 11.0mph /  17.7km/h 92% 0.00in /  0mm
05:44 49.6 °F /  9.8 °C 47.4 °F /  8.6 °C 30.10in /  1019.2hPa NE 4.0mph /  6.4km/h 11.0mph /  17.7km/h 92% 0.00in /  0mm
05:48 49.6 °F /  9.8 °C 47.4 °F /  8.6 °C 30.10in /  1019.2hPa NNE 8.0mph /  12.9km/h 12.0mph /  19.3km/h 92% 0.00in /  0mm
05:49 49.6 °F /  9.8 °C 47.4 °F /  8.6 °C 30.10in /  1019.2hPa NNE 6.0mph /  9.7km/h 12.0mph /  19.3km/h 92% 0.00in /  0mm
05:53 49.5 °F /  9.7 °C 47.3 °F /  8.5 °C 30.10in /  1019.2hPa NNE 6.0mph /  9.7km/h 8.0mph /  12.9km/h 92% 0.00in /  0mm
05:54 49.5 °F /  9.7 °C 47.3 °F /  8.5 °C 30.10in /  1019.2hPa NE 9.0mph /  14.5km/h 11.0mph /  17.7km/h 92% 0.00in /  0mm
05:55 49.5 °F /  9.7 °C 47.3 °F /  8.5 °C 30.10in /  1019.2hPa NNE 7.0mph /  11.3km/h 11.0mph /  17.7km/h 92% 0.00in /  0mm
05:59 49.5 °F /  9.7 °C 47.3 °F /  8.5 °C 30.09in /  1018.8hPa NNE 8.0mph /  12.9km/h 9.0mph /  14.5km/h 92% 0.00in /  0mm
06:00 49.5 °F /  9.7 °C 47.3 °F /  8.5 °C 30.09in /  1018.8hPa NE 5.0mph /  8km/h 8.0mph /  12.9km/h 92% 0.00in /  0mm
06:04 49.4 °F /  9.7 °C 47.2 °F /  8.4 °C 30.10in /  1019.2hPa NE 6.0mph /  9.7km/h 9.0mph /  14.5km/h 92% 0.00in /  0mm
06:09 49.3 °F /  9.6 °C 47.1 °F /  8.4 °C 30.10in /  1019.2hPa NE 5.0mph /  8km/h 9.0mph /  14.5km/h 92% 0.00in /  0mm
06:14 49.3 °F /  9.6 °C 47.1 °F /  8.4 °C 30.10in /  1019.2hPa NE 7.0mph /  11.3km/h 12.0mph /  19.3km/h 92% 0.00in /  0mm
06:19 49.2 °F /  9.6 °C 47.0 °F /  8.3 °C 30.09in /  1018.8hPa ENE 9.0mph /  14.5km/h 9.0mph /  14.5km/h 92% 0.00in /  0mm
06:24 49.3 °F /  9.6 °C 47.1 °F /  8.4 °C 30.09in /  1018.8hPa ENE 8.0mph /  12.9km/h 9.0mph /  14.5km/h 92% 0.00in /  0mm
06:29 49.2 °F /  9.6 °C 47.0 °F /  8.3 °C 30.09in /  1018.8hPa NE 6.0mph /  9.7km/h 8.0mph /  12.9km/h 92% 0.00in /  0mm
06:30 49.2 °F /  9.6 °C 47.0 °F /  8.3 °C 30.09in /  1018.8hPa NE 6.0mph /  9.7km/h 8.0mph /  12.9km/h 92% 0.00in /  0mm
06:33 49.2 °F /  9.6 °C 47.0 °F /  8.3 °C 30.09in /  1018.8hPa NE 8.0mph /  12.9km/h 9.0mph /  14.5km/h 92% 0.00in /  0mm
06:35 49.2 °F /  9.6 °C 47.0 °F /  8.3 °C 30.09in /  1018.8hPa NE 5.0mph /  8km/h 9.0mph /  14.5km/h 92% 0.00in /  0mm
06:38 49.1 °F /  9.5 °C 46.9 °F /  8.3 °C 30.10in /  1019.2hPa East 5.0mph /  8km/h 8.0mph /  12.9km/h 92% 0.00in /  0mm
06:43 49.1 °F /  9.5 °C 46.9 °F /  8.3 °C 30.10in /  1019.2hPa East 3.0mph /  4.8km/h 5.0mph /  8km/h 92% 0.00in /  0mm
06:44 49.1 °F /  9.5 °C 46.9 °F /  8.3 °C 30.10in /  1019.2hPa ENE 3.0mph /  4.8km/h 5.0mph /  8km/h 92% 0.00in /  0mm
06:45 49.1 °F /  9.5 °C 46.9 °F /  8.3 °C 30.10in /  1019.2hPa East 4.0mph /  6.4km/h 5.0mph /  8km/h 92% 0.00in /  0mm
06:49 49.0 °F /  9.4 °C 46.8 °F /  8.2 °C 30.10in /  1019.2hPa East 6.0mph /  9.7km/h 6.0mph /  9.7km/h 92% 0.00in /  0mm
06:50 49.0 °F /  9.4 °C 46.8 °F /  8.2 °C 30.10in /  1019.2hPa ENE 5.0mph /  8km/h 6.0mph /  9.7km/h 92% 0.00in /  0mm
06:54 48.9 °F /  9.4 °C 46.7 °F /  8.2 °C 30.11in /  1019.5hPa NE 2.0mph /  3.2km/h 5.0mph /  8km/h 92% 0.00in /  0mm
06:55 48.9 °F /  9.4 °C 46.7 °F /  8.2 °C 30.11in /  1019.5hPa ENE 3.0mph /  4.8km/h 4.0mph /  6.4km/h 92% 0.00in /  0mm
07:00 48.8 °F /  9.3 °C 46.6 °F /  8.1 °C 30.10in /  1019.2hPa NE 3.0mph /  4.8km/h 4.0mph /  6.4km/h 92% 0.00in /  0mm
07:05 48.7 °F /  9.3 °C 46.5 °F /  8.1 °C 30.10in /  1019.2hPa ENE 3.0mph /  4.8km/h 6.0mph /  9.7km/h 92% 0.00in /  0mm
07:06 48.7 °F /  9.3 °C 46.5 °F /  8.1 °C 30.10in /  1019.2hPa NE 2.0mph /  3.2km/h 6.0mph /  9.7km/h 92% 0.00in /  0mm
07:10 48.7 °F /  9.3 °C 46.5 °F /  8.1 °C 30.10in /  1019.2hPa East 2.0mph /  3.2km/h 5.0mph /  8km/h 92% 0.00in /  0mm
07:15 48.5 °F /  9.2 °C 46.3 °F /  7.9 °C 30.10in /  1019.2hPa East 6.0mph /  9.7km/h 6.0mph /  9.7km/h 92% 0.00in /  0mm
07:16 48.5 °F /  9.2 °C 46.3 °F /  7.9 °C 30.10in /  1019.2hPa NE 4.0mph /  6.4km/h 6.0mph /  9.7km/h 92% 0.00in /  0mm
07:20 48.4 °F /  9.1 °C 46.5 °F /  8.1 °C 30.10in /  1019.2hPa NE 3.0mph /  4.8km/h 5.0mph /  8km/h 93% 0.00in /  0mm
07:21 48.4 °F /  9.1 °C 46.5 °F /  8.1 °C 30.10in /  1019.2hPa ENE 3.0mph /  4.8km/h 4.0mph /  6.4km/h 93% 0.00in /  0mm
07:26 48.3 °F /  9.1 °C 46.4 °F /  8 °C 30.10in /  1019.2hPa NE 5.0mph /  8km/h 5.0mph /  8km/h 93% 0.00in /  0mm
07:31 48.3 °F /  9.1 °C 46.4 °F /  8 °C 30.10in /  1019.2hPa East 4.0mph /  6.4km/h 7.0mph /  11.3km/h 93% 0.00in /  0mm
07:32 48.2 °F /  9 °C 46.3 °F /  7.9 °C 30.10in /  1019.2hPa NE 3.0mph /  4.8km/h 7.0mph /  11.3km/h 93% 0.00in /  0mm
07:33 48.2 °F /  9 °C 46.3 °F /  7.9 °C 30.10in /  1019.2hPa ENE 1.0mph /  1.6km/h 7.0mph /  11.3km/h 93% 0.00in /  0mm
07:34 48.2 °F /  9 °C 46.3 °F /  7.9 °C 30.10in /  1019.2hPa ENE 1.0mph /  1.6km/h 7.0mph /  11.3km/h 93% 0.00in /  0mm
07:36 48.2 °F /  9 °C 46.3 °F /  7.9 °C 30.10in /  1019.2hPa NE 2.0mph /  3.2km/h 6.0mph /  9.7km/h 93% 0.00in /  0mm
07:41 48.1 °F /  8.9 °C 46.2 °F /  7.9 °C 30.10in /  1019.2hPa NE 4.0mph /  6.4km/h 7.0mph /  11.3km/h 93% 0.00in /  0mm
07:43 48.2 °F /  9 °C 46.3 °F /  7.9 °C 30.10in /  1019.2hPa NE 4.0mph /  6.4km/h 7.0mph /  11.3km/h 93% 0.00in /  0mm
07:46 48.1 °F /  8.9 °C 46.2 °F /  7.9 °C 30.10in /  1019.2hPa NE 5.0mph /  8km/h 7.0mph /  11.3km/h 93% 0.00in /  0mm
07:47 48.1 °F /  8.9 °C 46.2 °F /  7.9 °C 30.10in /  1019.2hPa NNE 3.0mph /  4.8km/h 7.0mph /  11.3km/h 93% 0.00in /  0mm
07:49 48.1 °F /  8.9 °C 46.2 °F /  7.9 °C 30.10in /  1019.2hPa NE 4.0mph /  6.4km/h 6.0mph /  9.7km/h 93% 0.00in /  0mm
07:52 48.1 °F /  8.9 °C 46.2 °F /  7.9 °C 30.09in /  1018.8hPa ENE 5.0mph /  8km/h 8.0mph /  12.9km/h 93% 0.00in /  0mm
07:53 48.1 °F /  8.9 °C 46.2 °F /  7.9 °C 30.09in /  1018.8hPa NE 4.0mph /  6.4km/h 5.0mph /  8km/h 93% 0.00in /  0mm
07:54 48.1 °F /  8.9 °C 46.2 °F /  7.9 °C 30.09in /  1018.8hPa NE 3.0mph /  4.8km/h 7.0mph /  11.3km/h 93% 0.00in /  0mm
07:57 48.1 °F /  8.9 °C 46.5 °F /  8.1 °C 30.10in /  1019.2hPa ENE 2.0mph /  3.2km/h 6.0mph /  9.7km/h 94% 0.00in /  0mm
07:59 48.0 °F /  8.9 °C 46.4 °F /  8 °C 30.09in /  1018.8hPa ENE 2.0mph /  3.2km/h 4.0mph /  6.4km/h 94% 0.00in /  0mm
08:04 47.9 °F /  8.8 °C 46.3 °F /  7.9 °C 30.10in /  1019.2hPa East 5.0mph /  8km/h 6.0mph /  9.7km/h 94% 0.00in /  0mm
08:05 48.0 °F /  8.9 °C 46.4 °F /  8 °C 30.10in /  1019.2hPa NNE 2.0mph /  3.2km/h 6.0mph /  9.7km/h 94% 0.00in /  0mm
08:09 48.0 °F /  8.9 °C 46.4 °F /  8 °C 30.10in /  1019.2hPa NNE 3.0mph /  4.8km/h 6.0mph /  9.7km/h 94% 0.00in /  0mm
08:14 48.0 °F /  8.9 °C 46.4 °F /  8 °C 30.10in /  1019.2hPa East 4.0mph /  6.4km/h 6.0mph /  9.7km/h 94% 0.00in /  0mm
08:19 48.1 °F /  8.9 °C 46.5 °F /  8.1 °C 30.10in /  1019.2hPa East 2.0mph /  3.2km/h 5.0mph /  8km/h 94% 0.00in /  0mm
08:20 48.1 °F /  8.9 °C 46.5 °F /  8.1 °C 30.10in /  1019.2hPa ENE 1.0mph /  1.6km/h 5.0mph /  8km/h 94% 0.00in /  0mm
08:25 48.1 °F /  8.9 °C 46.5 °F /  8.1 °C 30.09in /  1018.8hPa East 3.0mph /  4.8km/h 8.0mph /  12.9km/h 94% 0.00in /  0mm
08:30 48.1 °F /  8.9 °C 46.5 °F /  8.1 °C 30.09in /  1018.8hPa ESE 6.0mph /  9.7km/h 6.0mph /  9.7km/h 94% 0.00in /  0mm
08:31 48.1 °F /  8.9 °C 46.5 °F /  8.1 °C 30.10in /  1019.2hPa ENE 2.0mph /  3.2km/h 6.0mph /  9.7km/h 94% 0.00in /  0mm
08:35 48.1 °F /  8.9 °C 46.5 °F /  8.1 °C 30.10in /  1019.2hPa ENE 4.0mph /  6.4km/h 8.0mph /  12.9km/h 94% 0.00in /  0mm
08:36 48.1 °F /  8.9 °C 46.5 °F /  8.1 °C 30.10in /  1019.2hPa NE 5.0mph /  8km/h 8.0mph /  12.9km/h 94% 0.00in /  0mm
08:37 48.1 °F /  8.9 °C 46.5 °F /  8.1 °C 30.10in /  1019.2hPa ENE 6.0mph /  9.7km/h 7.0mph /  11.3km/h 94% 0.00in /  0mm
08:40 48.1 °F /  8.9 °C 46.5 °F /  8.1 °C 30.10in /  1019.2hPa East 4.0mph /  6.4km/h 7.0mph /  11.3km/h 94% 0.00in /  0mm
08:41 48.2 °F /  9 °C 46.6 °F /  8.1 °C 30.10in /  1019.2hPa ESE 2.0mph /  3.2km/h 7.0mph /  11.3km/h 94% 0.00in /  0mm
08:45 48.2 °F /  9 °C 46.6 °F /  8.1 °C 30.10in /  1019.2hPa East 4.0mph /  6.4km/h 7.0mph /  11.3km/h 94% 0.00in /  0mm
08:46 48.3 °F /  9.1 °C 46.7 °F /  8.2 °C 30.10in /  1019.2hPa ENE 4.0mph /  6.4km/h 7.0mph /  11.3km/h 94% 0.00in /  0mm
08:51 48.3 °F /  9.1 °C 46.4 °F /  8 °C 30.10in /  1019.2hPa ENE 6.0mph /  9.7km/h 6.0mph /  9.7km/h 93% 0.00in /  0mm
08:52 48.4 °F /  9.1 °C 46.5 °F /  8.1 °C 30.10in /  1019.2hPa East 6.0mph /  9.7km/h 6.0mph /  9.7km/h 93% 0.00in /  0mm
08:56 48.4 °F /  9.1 °C 46.5 °F /  8.1 °C 30.10in /  1019.2hPa East 6.0mph /  9.7km/h 8.0mph /  12.9km/h 93% 0.00in /  0mm
08:58 48.5 °F /  9.2 °C 46.6 °F /  8.1 °C 30.10in /  1019.2hPa ENE 3.0mph /  4.8km/h 7.0mph /  11.3km/h 93% 0.00in /  0mm
09:01 48.5 °F /  9.2 °C 46.6 °F /  8.1 °C 30.10in /  1019.2hPa East 2.0mph /  3.2km/h 5.0mph /  8km/h 93% 0.00in /  0mm
09:03 48.5 °F /  9.2 °C 46.6 °F /  8.1 °C 30.10in /  1019.2hPa ENE 6.0mph /  9.7km/h 7.0mph /  11.3km/h 93% 0.00in /  0mm
09:06 48.6 °F /  9.2 °C 46.7 °F /  8.2 °C 30.10in /  1019.2hPa ENE 7.0mph /  11.3km/h 7.0mph /  11.3km/h 93% 0.00in /  0mm
09:08 48.6 °F /  9.2 °C 46.7 °F /  8.2 °C 30.10in /  1019.2hPa East 5.0mph /  8km/h 7.0mph /  11.3km/h 93% 0.00in /  0mm
09:13 48.7 °F /  9.3 °C 46.8 °F /  8.2 °C 30.10in /  1019.2hPa East 3.0mph /  4.8km/h 6.0mph /  9.7km/h 93% 0.00in /  0mm
09:18 48.8 °F /  9.3 °C 46.9 °F /  8.3 °C 30.10in /  1019.2hPa ENE 5.0mph /  8km/h 6.0mph /  9.7km/h 93% 0.00in /  0mm
09:19 48.8 °F /  9.3 °C 46.9 °F /  8.3 °C 30.10in /  1019.2hPa East 5.0mph /  8km/h 6.0mph /  9.7km/h 93% 0.00in /  0mm
09:23 48.9 °F /  9.4 °C 47.0 °F /  8.3 °C 30.10in /  1019.2hPa ESE 5.0mph /  8km/h 7.0mph /  11.3km/h 93% 0.00in /  0mm
09:24 48.9 °F /  9.4 °C 47.0 °F /  8.3 °C 30.10in /  1019.2hPa NE 6.0mph /  9.7km/h 7.0mph /  11.3km/h 93% 0.00in /  0mm
09:29 48.9 °F /  9.4 °C 47.0 °F /  8.3 °C 30.10in /  1019.2hPa ENE 6.0mph /  9.7km/h 8.0mph /  12.9km/h 93% 0.00in /  0mm
09:34 49.0 °F /  9.4 °C 47.1 °F /  8.4 °C 30.10in /  1019.2hPa East 5.0mph /  8km/h 8.0mph /  12.9km/h 93% 0.00in /  0mm
09:35 49.0 °F /  9.4 °C 47.1 °F /  8.4 °C 30.10in /  1019.2hPa ESE 2.0mph /  3.2km/h 8.0mph /  12.9km/h 93% 0.00in /  0mm
09:36 49.0 °F /  9.4 °C 47.1 °F /  8.4 °C 30.10in /  1019.2hPa ESE 1.0mph /  1.6km/h 8.0mph /  12.9km/h 93% 0.00in /  0mm
09:41 49.2 °F /  9.6 °C 47.3 °F /  8.5 °C 30.10in /  1019.2hPa East 1.0mph /  1.6km/h 4.0mph /  6.4km/h 93% 0.00in /  0mm
09:46 49.4 °F /  9.7 °C 47.5 °F /  8.6 °C 30.10in /  1019.2hPa East 4.0mph /  6.4km/h 6.0mph /  9.7km/h 93% 0.00in /  0mm
09:47 49.4 °F /  9.7 °C 47.5 °F /  8.6 °C 30.10in /  1019.2hPa ESE 4.0mph /  6.4km/h 6.0mph /  9.7km/h 93% 0.00in /  0mm
09:51 49.6 °F /  9.8 °C 47.4 °F /  8.6 °C 30.11in /  1019.5hPa East 3.0mph /  4.8km/h 6.0mph /  9.7km/h 92% 0.00in /  0mm
09:53 49.7 °F /  9.8 °C 47.5 °F /  8.6 °C 30.11in /  1019.5hPa ESE 3.0mph /  4.8km/h 6.0mph /  9.7km/h 92% 0.00in /  0mm
09:56 49.9 °F /  9.9 °C 48.0 °F /  8.9 °C 30.11in /  1019.5hPa East 3.0mph /  4.8km/h 5.0mph /  8km/h 93% 0.00in /  0mm
09:58 50.0 °F /  10 °C 47.8 °F /  8.8 °C 30.11in /  1019.5hPa ENE 4.0mph /  6.4km/h 5.0mph /  8km/h 92% 0.00in /  0mm
10:02 50.2 °F /  10.1 °C 48.3 °F /  9.1 °C 30.11in /  1019.5hPa ESE 4.0mph /  6.4km/h 4.0mph /  6.4km/h 93% 0.00in /  0mm
10:03 50.3 °F /  10.2 °C 48.1 °F /  8.9 °C 30.11in /  1019.5hPa ESE 4.0mph /  6.4km/h 6.0mph /  9.7km/h 92% 0.00in /  0mm
10:04 50.3 °F /  10.2 °C 48.1 °F /  8.9 °C 30.11in /  1019.5hPa ESE 3.0mph /  4.8km/h 6.0mph /  9.7km/h 92% 0.00in /  0mm
10:09 50.7 °F /  10.4 °C 48.5 °F /  9.2 °C 30.11in /  1019.5hPa East 3.0mph /  4.8km/h 4.0mph /  6.4km/h 92% 0.00in /  0mm
10:14 51.0 °F /  10.6 °C 48.8 °F /  9.3 °C 30.11in /  1019.5hPa East 4.0mph /  6.4km/h 5.0mph /  8km/h 92% 0.00in /  0mm
10:15 51.0 °F /  10.6 °C 48.8 °F /  9.3 °C 30.11in /  1019.5hPa ESE 3.0mph /  4.8km/h 5.0mph /  8km/h 92% 0.00in /  0mm
10:19 51.3 °F /  10.7 °C 48.8 °F /  9.3 °C 30.11in /  1019.5hPa East 3.0mph /  4.8km/h 4.0mph /  6.4km/h 91% 0.00in /  0mm
10:21 51.4 °F /  10.8 °C 48.9 °F /  9.4 °C 30.11in /  1019.5hPa East 3.0mph /  4.8km/h 4.0mph /  6.4km/h 91% 0.00in /  0mm
10:24 51.7 °F /  10.9 °C 49.2 °F /  9.6 °C 30.11in /  1019.5hPa East 3.0mph /  4.8km/h 4.0mph /  6.4km/h 91% 0.00in /  0mm
10:25 51.8 °F /  11 °C 49.5 °F /  9.7 °C 30.11in /  1019.5hPa SE 2.0mph /  3.2km/h 4.0mph /  6.4km/h 92% 0.00in /  0mm
10:27 51.9 °F /  11.1 °C 49.4 °F /  9.7 °C 30.11in /  1019.5hPa SE 3.0mph /  4.8km/h 4.0mph /  6.4km/h 91% 0.00in /  0mm
10:29 52.1 °F /  11.2 °C 49.3 °F /  9.6 °C 30.11in /  1019.5hPa East 4.0mph /  6.4km/h 5.0mph /  8km/h 90% 0.00in /  0mm
10:30 52.1 °F /  11.2 °C 49.3 °F /  9.6 °C 30.11in /  1019.5hPa ESE 3.0mph /  4.8km/h 5.0mph /  8km/h 90% 0.00in /  0mm
10:35 52.6 °F /  11.4 °C 49.8 °F /  9.9 °C 30.11in /  1019.5hPa East 2.0mph /  3.2km/h 4.0mph /  6.4km/h 90% 0.00in /  0mm
10:40 52.9 °F /  11.6 °C 50.0 °F /  10 °C 30.11in /  1019.5hPa ESE 3.0mph /  4.8km/h 5.0mph /  8km/h 90% 0.00in /  0mm
10:41 53.1 °F /  11.7 °C 50.2 °F /  10.1 °C 30.11in /  1019.5hPa ESE 4.0mph /  6.4km/h 5.0mph /  8km/h 90% 0.00in /  0mm
10:46 53.4 °F /  11.9 °C 49.9 °F /  9.9 °C 30.11in /  1019.5hPa ESE 5.0mph /  8km/h 5.0mph /  8km/h 88% 0.00in /  0mm
10:52 53.6 °F /  12 °C 50.1 °F /  10.1 °C 30.11in /  1019.5hPa SE 4.0mph /  6.4km/h 5.0mph /  8km/h 88% 0.00in /  0mm
10:54 53.8 °F /  12.1 °C 50.6 °F /  10.3 °C 30.11in /  1019.5hPa ESE 5.0mph /  8km/h 6.0mph /  9.7km/h 89% 0.00in /  0mm
10:57 54.1 °F /  12.3 °C 50.6 °F /  10.3 °C 30.11in /  1019.5hPa SE 3.0mph /  4.8km/h 6.0mph /  9.7km/h 88% 0.00in /  0mm
11:02 54.6 °F /  12.6 °C 51.1 °F /  10.6 °C 30.11in /  1019.5hPa ESE 5.0mph /  8km/h 7.0mph /  11.3km/h 88% 0.00in /  0mm
11:03 54.6 °F /  12.6 °C 51.1 °F /  10.6 °C 30.11in /  1019.5hPa SE 3.0mph /  4.8km/h 6.0mph /  9.7km/h 88% 0.00in /  0mm
11:08 55.1 °F /  12.8 °C 51.6 °F /  10.9 °C 30.11in /  1019.5hPa ESE 5.0mph /  8km/h 6.0mph /  9.7km/h 88% 0.00in /  0mm
11:09 55.2 °F /  12.9 °C 51.4 °F /  10.8 °C 30.11in /  1019.5hPa ESE 4.0mph /  6.4km/h 6.0mph /  9.7km/h 87% 0.00in /  0mm
11:14 55.4 °F /  13 °C 51.6 °F /  10.9 °C 30.11in /  1019.5hPa ESE 5.0mph /  8km/h 7.0mph /  11.3km/h 87% 0.00in /  0mm
11:19 55.4 °F /  13 °C 51.6 °F /  10.9 °C 30.10in /  1019.2hPa ESE 6.0mph /  9.7km/h 8.0mph /  12.9km/h 87% 0.00in /  0mm
11:24 55.5 °F /  13.1 °C 51.7 °F /  10.9 °C 30.11in /  1019.5hPa SE 3.0mph /  4.8km/h 5.0mph /  8km/h 87% 0.00in /  0mm
11:25 55.6 °F /  13.1 °C 51.8 °F /  11 °C 30.11in /  1019.5hPa SE 5.0mph /  8km/h 5.0mph /  8km/h 87% 0.00in /  0mm
11:29 55.8 °F /  13.2 °C 52.0 °F /  11.1 °C 30.11in /  1019.5hPa SE 4.0mph /  6.4km/h 5.0mph /  8km/h 87% 0.00in /  0mm
11:30 55.8 °F /  13.2 °C 52.3 °F /  11.3 °C 30.11in /  1019.5hPa SE 6.0mph /  9.7km/h 8.0mph /  12.9km/h 88% 0.00in /  0mm
11:31 55.9 °F /  13.3 °C 52.1 °F /  11.2 °C 30.10in /  1019.2hPa SE 5.0mph /  8km/h 8.0mph /  12.9km/h 87% 0.00in /  0mm
11:34 55.9 °F /  13.3 °C 52.1 °F /  11.2 °C 30.10in /  1019.2hPa ESE 7.0mph /  11.3km/h 7.0mph /  11.3km/h 87% 0.00in /  0mm
11:35 55.9 °F /  13.3 °C 51.8 °F /  11 °C 30.10in /  1019.2hPa ESE 5.0mph /  8km/h 7.0mph /  11.3km/h 86% 0.00in /  0mm
11:36 55.9 °F /  13.3 °C 52.1 °F /  11.2 °C 30.10in /  1019.2hPa SE 4.0mph /  6.4km/h 7.0mph /  11.3km/h 87% 0.00in /  0mm
11:40 56.0 °F /  13.3 °C 52.2 °F /  11.2 °C 30.10in /  1019.2hPa SE 5.0mph /  8km/h 7.0mph /  11.3km/h 87% 0.00in /  0mm
11:41 56.0 °F /  13.3 °C 51.9 °F /  11.1 °C 30.10in /  1019.2hPa SE 4.0mph /  6.4km/h 7.0mph /  11.3km/h 86% 0.00in /  0mm
11:46 56.1 °F /  13.4 °C 52.3 °F /  11.3 °C 30.10in /  1019.2hPa SE 3.0mph /  4.8km/h 3.0mph /  4.8km/h 87% 0.00in /  0mm
11:48 56.2 °F /  13.4 °C 52.4 °F /  11.3 °C 30.10in /  1019.2hPa SE 5.0mph /  8km/h 6.0mph /  9.7km/h 87% 0.00in /  0mm
11:52 56.5 °F /  13.6 °C 52.7 °F /  11.5 °C 30.10in /  1019.2hPa SE 4.0mph /  6.4km/h 7.0mph /  11.3km/h 87% 0.00in /  0mm
11:53 56.5 °F /  13.6 °C 52.7 °F /  11.5 °C 30.10in /  1019.2hPa SE 4.0mph /  6.4km/h 7.0mph /  11.3km/h 87% 0.00in /  0mm
11:58 56.7 °F /  13.7 °C 52.6 °F /  11.4 °C 30.10in /  1019.2hPa SE 3.0mph /  4.8km/h 8.0mph /  12.9km/h 86% 0.00in /  0mm
12:04 56.8 °F /  13.8 °C 53.0 °F /  11.7 °C 30.10in /  1019.2hPa SSE 5.0mph /  8km/h 5.0mph /  8km/h 87% 0.00in /  0mm
12:09 57.0 °F /  13.9 °C 53.2 °F /  11.8 °C 30.10in /  1019.2hPa SE 2.0mph /  3.2km/h 5.0mph /  8km/h 87% 0.00in /  0mm
12:10 57.0 °F /  13.9 °C 53.2 °F /  11.8 °C 30.10in /  1019.2hPa SE 2.0mph /  3.2km/h 3.0mph /  4.8km/h 87% 0.00in /  0mm
12:14 56.9 °F /  13.8 °C 53.1 °F /  11.7 °C 30.10in /  1019.2hPa SE 3.0mph /  4.8km/h 4.0mph /  6.4km/h 87% 0.00in /  0mm
12:15 56.9 °F /  13.8 °C 53.1 °F /  11.7 °C 30.10in /  1019.2hPa SSE 4.0mph /  6.4km/h 5.0mph /  8km/h 87% 0.00in /  0mm
12:19 57.0 °F /  13.9 °C 53.5 °F /  11.9 °C 30.10in /  1019.2hPa SE 3.0mph /  4.8km/h 4.0mph /  6.4km/h 88% 0.00in /  0mm
12:20 57.0 °F /  13.9 °C 53.5 °F /  11.9 °C 30.10in /  1019.2hPa SE 4.0mph /  6.4km/h 4.0mph /  6.4km/h 88% 0.00in /  0mm
12:24 57.1 °F /  13.9 °C 53.6 °F /  12 °C 30.10in /  1019.2hPa ESE 2.0mph /  3.2km/h 4.0mph /  6.4km/h 88% 0.00in /  0mm
12:25 57.1 °F /  13.9 °C 53.6 °F /  12 °C 30.10in /  1019.2hPa SSE 2.0mph /  3.2km/h 3.0mph /  4.8km/h 88% 0.00in /  0mm
12:26 57.1 °F /  13.9 °C 53.9 °F /  12.2 °C 30.10in /  1019.2hPa SSE 2.0mph /  3.2km/h 3.0mph /  4.8km/h 89% 0.00in /  0mm
12:30 57.1 °F /  13.9 °C 53.9 °F /  12.2 °C 30.09in /  1018.8hPa SE 3.0mph /  4.8km/h 4.0mph /  6.4km/h 89% 0.00in /  0mm
12:31 57.1 °F /  13.9 °C 53.9 °F /  12.2 °C 30.09in /  1018.8hPa SSE 4.0mph /  6.4km/h 5.0mph /  8km/h 89% 0.00in /  0mm
12:35 57.2 °F /  14 °C 54.0 °F /  12.2 °C 30.09in /  1018.8hPa SSE 2.0mph /  3.2km/h 5.0mph /  8km/h 89% 0.00in /  0mm
12:36 57.2 °F /  14 °C 54.0 °F /  12.2 °C 30.09in /  1018.8hPa SSE 3.0mph /  4.8km/h 5.0mph /  8km/h 89% 0.00in /  0mm
12:40 57.4 °F /  14.1 °C 54.2 °F /  12.3 °C 30.09in /  1018.8hPa SSE 3.0mph /  4.8km/h 4.0mph /  6.4km/h 89% 0.00in /  0mm
12:41 57.4 °F /  14.1 °C 54.2 °F /  12.3 °C 30.09in /  1018.8hPa SE 3.0mph /  4.8km/h 4.0mph /  6.4km/h 89% 0.00in /  0mm
12:42 57.5 °F /  14.2 °C 54.3 °F /  12.4 °C 30.09in /  1018.8hPa SE 2.0mph /  3.2km/h 4.0mph /  6.4km/h 89% 0.00in /  0mm
12:46 57.6 °F /  14.2 °C 54.4 °F /  12.4 °C 30.08in /  1018.5hPa SE 3.0mph /  4.8km/h 4.0mph /  6.4km/h 89% 0.00in /  0mm
12:47 57.8 °F /  14.3 °C 54.6 °F /  12.6 °C 30.08in /  1018.5hPa SSE 3.0mph /  4.8km/h 4.0mph /  6.4km/h 89% 0.00in /  0mm
12:51 57.9 °F /  14.4 °C 54.7 °F /  12.6 °C 30.08in /  1018.5hPa SSE 3.0mph /  4.8km/h 4.0mph /  6.4km/h 89% 0.00in /  0mm
12:53 58.0 °F /  14.4 °C 54.5 °F /  12.5 °C 30.08in /  1018.5hPa SSE 2.0mph /  3.2km/h 4.0mph /  6.4km/h 88% 0.00in /  0mm
12:54 58.1 °F /  14.5 °C 54.6 °F /  12.6 °C 30.08in /  1018.5hPa SSE 3.0mph /  4.8km/h 4.0mph /  6.4km/h 88% 0.00in /  0mm
12:56 58.2 °F /  14.6 °C 54.7 °F /  12.6 °C 30.08in /  1018.5hPa SSE 4.0mph /  6.4km/h 5.0mph /  8km/h 88% 0.00in /  0mm
12:58 58.3 °F /  14.6 °C 54.8 °F /  12.7 °C 30.08in /  1018.5hPa SSE 4.0mph /  6.4km/h 5.0mph /  8km/h 88% 0.00in /  0mm
12:59 58.3 °F /  14.6 °C 54.5 °F /  12.5 °C 30.08in /  1018.5hPa SE 6.0mph /  9.7km/h 6.0mph /  9.7km/h 87% 0.00in /  0mm
13:04 58.6 °F /  14.8 °C 54.8 °F /  12.7 °C 30.08in /  1018.5hPa ESE 5.0mph /  8km/h 7.0mph /  11.3km/h 87% 0.00in /  0mm
13:05 58.6 °F /  14.8 °C 54.8 °F /  12.7 °C 30.08in /  1018.5hPa SE 5.0mph /  8km/h 7.0mph /  11.3km/h 87% 0.00in /  0mm
13:09 59.1 °F /  15.1 °C 55.5 °F /  13.1 °C 30.08in /  1018.5hPa SE 6.0mph /  9.7km/h 7.0mph /  11.3km/h 88% 0.00in /  0mm
13:10 59.1 °F /  15.1 °C 55.5 °F /  13.1 °C 30.08in /  1018.5hPa SSE 5.0mph /  8km/h 7.0mph /  11.3km/h 88% 0.00in /  0mm
13:15 59.6 °F /  15.3 °C 55.4 °F /  13 °C 30.07in /  1018.2hPa SE 4.0mph /  6.4km/h 8.0mph /  12.9km/h 86% 0.00in /  0mm
13:16 59.7 °F /  15.4 °C 55.2 °F /  12.9 °C 30.07in /  1018.2hPa SSE 7.0mph /  11.3km/h 8.0mph /  12.9km/h 85% 0.00in /  0mm
13:20 60.1 °F /  15.6 °C 55.9 °F /  13.3 °C 30.07in /  1018.2hPa SSE 8.0mph /  12.9km/h 8.0mph /  12.9km/h 86% 0.00in /  0mm
13:21 60.2 °F /  15.7 °C 56.0 °F /  13.3 °C 30.07in /  1018.2hPa SE 7.0mph /  11.3km/h 8.0mph /  12.9km/h 86% 0.00in /  0mm
13:22 60.2 °F /  15.7 °C 56.0 °F /  13.3 °C 30.07in /  1018.2hPa SE 7.0mph /  11.3km/h 8.0mph /  12.9km/h 86% 0.00in /  0mm
13:27 60.7 °F /  15.9 °C 56.2 °F /  13.4 °C 30.07in /  1018.2hPa SSE 7.0mph /  11.3km/h 10.0mph /  16.1km/h 85% 0.00in /  0mm
13:28 60.8 °F /  16 °C 56.3 °F /  13.5 °C 30.07in /  1018.2hPa South 4.0mph /  6.4km/h 10.0mph /  16.1km/h 85% 0.00in /  0mm
13:32 61.3 °F /  16.3 °C 56.8 °F /  13.8 °C 30.07in /  1018.2hPa SE 7.0mph /  11.3km/h 7.0mph /  11.3km/h 85% 0.00in /  0mm
13:33 61.5 °F /  16.4 °C 56.6 °F /  13.7 °C 30.07in /  1018.2hPa SSE 7.0mph /  11.3km/h 9.0mph /  14.5km/h 84% 0.00in /  0mm
13:37 61.9 °F /  16.6 °C 57.0 °F /  13.9 °C 30.06in /  1017.8hPa SSE 10.0mph /  16.1km/h 12.0mph /  19.3km/h 84% 0.00in /  0mm
13:42 62.3 °F /  16.8 °C 56.7 °F /  13.7 °C 30.06in /  1017.8hPa SSE 5.0mph /  8km/h 10.0mph /  16.1km/h 82% 0.00in /  0mm
13:47 62.7 °F /  17.1 °C 56.8 °F /  13.8 °C 30.05in /  1017.5hPa ESE 3.0mph /  4.8km/h 7.0mph /  11.3km/h 81% 0.00in /  0mm
13:48 62.7 °F /  17.1 °C 56.8 °F /  13.8 °C 30.05in /  1017.5hPa ESE 5.0mph /  8km/h 7.0mph /  11.3km/h 81% 0.00in /  0mm
13:53 63.3 °F /  17.4 °C 57.4 °F /  14.1 °C 30.05in /  1017.5hPa SSE 9.0mph /  14.5km/h 9.0mph /  14.5km/h 81% 0.00in /  0mm
13:54 63.3 °F /  17.4 °C 57.4 °F /  14.1 °C 30.05in /  1017.5hPa SSE 8.0mph /  12.9km/h 9.0mph /  14.5km/h 81% 0.00in /  0mm
13:57 63.4 °F /  17.4 °C 56.8 °F /  13.8 °C 30.05in /  1017.5hPa SE 5.0mph /  8km/h 10.0mph /  16.1km/h 79% 0.00in /  0mm
13:59 63.4 °F /  17.4 °C 57.5 °F /  14.2 °C 30.05in /  1017.5hPa SSE 6.0mph /  9.7km/h 9.0mph /  14.5km/h 81% 0.00in /  0mm
14:04 64.0 °F /  17.8 °C 57.4 °F /  14.1 °C 30.04in /  1017.2hPa SE 5.0mph /  8km/h 9.0mph /  14.5km/h 79% 0.00in /  0mm
14:05 64.1 °F /  17.8 °C 57.5 °F /  14.2 °C 30.04in /  1017.2hPa SSE 8.0mph /  12.9km/h 11.0mph /  17.7km/h 79% 0.00in /  0mm
14:09 64.4 °F /  18 °C 56.7 °F /  13.7 °C 30.04in /  1017.2hPa WSW 4.0mph /  6.4km/h 9.0mph /  14.5km/h 76% 0.00in /  0mm
14:10 64.4 °F /  18 °C 56.7 °F /  13.7 °C 30.04in /  1017.2hPa WSW 4.0mph /  6.4km/h 8.0mph /  12.9km/h 76% 0.00in /  0mm
14:14 64.6 °F /  18.1 °C 56.9 °F /  13.8 °C 30.03in /  1016.8hPa SE 7.0mph /  11.3km/h 7.0mph /  11.3km/h 76% 0.00in /  0mm
14:15 64.6 °F /  18.1 °C 56.9 °F /  13.8 °C 30.03in /  1016.8hPa SE 8.0mph /  12.9km/h 8.0mph /  12.9km/h 76% 0.00in /  0mm
14:19 64.7 °F /  18.2 °C 56.6 °F /  13.7 °C 30.03in /  1016.8hPa South 4.0mph /  6.4km/h 7.0mph /  11.3km/h 75% 0.00in /  0mm
14:20 64.7 °F /  18.2 °C 56.6 °F /  13.7 °C 30.03in /  1016.8hPa South 4.0mph /  6.4km/h 7.0mph /  11.3km/h 75% 0.00in /  0mm
14:25 64.7 °F /  18.2 °C 57.0 °F /  13.9 °C 30.03in /  1016.8hPa SE 6.0mph /  9.7km/h 6.0mph /  9.7km/h 76% 0.00in /  0mm
14:30 64.5 °F /  18.1 °C 56.8 °F /  13.8 °C 30.02in /  1016.5hPa SE 2.0mph /  3.2km/h 5.0mph /  8km/h 76% 0.00in /  0mm
14:31 64.5 °F /  18.1 °C 56.4 °F /  13.6 °C 30.02in /  1016.5hPa SE 2.0mph /  3.2km/h 5.0mph /  8km/h 75% 0.00in /  0mm
14:32 64.5 °F /  18.1 °C 56.4 °F /  13.6 °C 30.02in /  1016.5hPa SW 1.0mph /  1.6km/h 4.0mph /  6.4km/h 75% 0.00in /  0mm
14:33 64.4 °F /  18 °C 56.3 °F /  13.5 °C 30.02in /  1016.5hPa SSW 5.0mph /  8km/h 6.0mph /  9.7km/h 75% 0.00in /  0mm
14:34 64.4 °F /  18 °C 56.3 °F /  13.5 °C 30.02in /  1016.5hPa SSW 3.0mph /  4.8km/h 6.0mph /  9.7km/h 75% 0.00in /  0mm
14:37 64.2 °F /  17.9 °C 56.5 °F /  13.6 °C 30.02in /  1016.5hPa SSE 4.0mph /  6.4km/h 4.0mph /  6.4km/h 76% 0.00in /  0mm
14:38 64.2 °F /  17.9 °C 56.8 °F /  13.8 °C 30.02in /  1016.5hPa South 2.0mph /  3.2km/h 4.0mph /  6.4km/h 77% 0.00in /  0mm
14:39 64.2 °F /  17.9 °C 56.8 °F /  13.8 °C 30.02in /  1016.5hPa South 2.0mph /  3.2km/h 4.0mph /  6.4km/h 77% 0.00in /  0mm
14:42 64.0 °F /  17.8 °C 56.3 °F /  13.5 °C 30.02in /  1016.5hPa SSE 4.0mph /  6.4km/h 4.0mph /  6.4km/h 76% 0.00in /  0mm
14:43 64.0 °F /  17.8 °C 56.3 °F /  13.5 °C 30.02in /  1016.5hPa SSE 3.0mph /  4.8km/h 4.0mph /  6.4km/h 76% 0.00in /  0mm
14:44 64.0 °F /  17.8 °C 56.3 °F /  13.5 °C 30.02in /  1016.5hPa SE 2.0mph /  3.2km/h 4.0mph /  6.4km/h 76% 0.00in /  0mm
14:48 63.9 °F /  17.7 °C 56.6 °F /  13.7 °C 30.01in /  1016.1hPa SE 2.0mph /  3.2km/h 4.0mph /  6.4km/h 77% 0.00in /  0mm
14:53 63.8 °F /  17.7 °C 56.5 °F /  13.6 °C 30.01in /  1016.1hPa SE 2.0mph /  3.2km/h 2.0mph /  3.2km/h 77% 0.00in /  0mm
14:54 63.9 °F /  17.7 °C 56.6 °F /  13.7 °C 30.01in /  1016.1hPa SE 2.0mph /  3.2km/h 2.0mph /  3.2km/h 77% 0.00in /  0mm
14:58 64.1 °F /  17.8 °C 56.8 °F /  13.8 °C 30.00in /  1015.8hPa SE 3.0mph /  4.8km/h 4.0mph /  6.4km/h 77% 0.00in /  0mm
14:59 64.1 °F /  17.8 °C 56.8 °F /  13.8 °C 30.00in /  1015.8hPa ESE 3.0mph /  4.8km/h 3.0mph /  4.8km/h 77% 0.00in /  0mm
15:03 64.2 °F /  17.9 °C 56.5 °F /  13.6 °C 30.00in /  1015.8hPa SE 4.0mph /  6.4km/h 7.0mph /  11.3km/h 76% 0.00in /  0mm
15:04 64.1 °F /  17.8 °C 56.8 °F /  13.8 °C 30.00in /  1015.8hPa SSE 3.0mph /  4.8km/h 7.0mph /  11.3km/h 77% 0.00in /  0mm
15:10 63.5 °F /  17.5 °C 56.9 °F /  13.8 °C 30.00in /  1015.8hPa South 5.0mph /  8km/h 6.0mph /  9.7km/h 79% 0.22in /  5.59mm
15:15 62.4 °F /  16.9 °C 57.5 °F /  14.2 °C 30.01in /  1016.1hPa SW 1.0mph /  1.6km/h 4.0mph /  6.4km/h 84% 0.27in /  6.86mm
15:20 61.0 °F /  16.1 °C 57.1 °F /  13.9 °C 30.02in /  1016.5hPa SW 7.0mph /  11.3km/h 12.0mph /  19.3km/h 87% 2.55in /  64.77mm
15:21 60.9 °F /  16.1 °C 57.0 °F /  13.9 °C 30.02in /  1016.5hPa SW 7.0mph /  11.3km/h 12.0mph /  19.3km/h 87% 2.55in /  64.77mm
15:26 59.9 °F /  15.5 °C 57.3 °F /  14.1 °C 30.02in /  1016.5hPa SW 9.0mph /  14.5km/h 12.0mph /  19.3km/h 91% 0.95in /  24.13mm
15:27 59.7 °F /  15.4 °C 57.1 °F /  13.9 °C 30.02in /  1016.5hPa SW 5.0mph /  8km/h 11.0mph /  17.7km/h 91% 0.52in /  13.21mm
15:31 59.4 °F /  15.2 °C 57.4 °F /  14.1 °C 30.02in /  1016.5hPa WSW 4.0mph /  6.4km/h 9.0mph /  14.5km/h 93% 0.45in /  11.43mm
15:32 59.3 °F /  15.2 °C 57.3 °F /  14.1 °C 30.02in /  1016.5hPa WSW 3.0mph /  4.8km/h 7.0mph /  11.3km/h 93% 0.75in /  19.05mm
15:33 59.2 °F /  15.1 °C 57.2 °F /  14 °C 30.02in /  1016.5hPa SW 4.0mph /  6.4km/h 7.0mph /  11.3km/h 93% 0.78in /  19.81mm
15:36 59.1 °F /  15.1 °C 57.1 °F /  13.9 °C 30.02in /  1016.5hPa West 3.0mph /  4.8km/h 8.0mph /  12.9km/h 93% 0.34in /  8.64mm
15:37 59.0 °F /  15 °C 57.0 °F /  13.9 °C 30.01in /  1016.1hPa SSW 5.0mph /  8km/h 8.0mph /  12.9km/h 93% 0.30in /  7.62mm
15:41 58.9 °F /  14.9 °C 56.9 °F /  13.8 °C 30.01in /  1016.1hPa SE 3.0mph /  4.8km/h 8.0mph /  12.9km/h 93% 0.22in /  5.59mm
15:42 58.9 °F /  14.9 °C 56.9 °F /  13.8 °C 30.00in /  1015.8hPa SE 3.0mph /  4.8km/h 5.0mph /  8km/h 93% 0.23in /  5.84mm
15:46 58.9 °F /  14.9 °C 56.9 °F /  13.8 °C 30.00in /  1015.8hPa SE 4.0mph /  6.4km/h 4.0mph /  6.4km/h 93% 0.26in /  6.6mm
15:47 58.9 °F /  14.9 °C 56.9 °F /  13.8 °C 30.00in /  1015.8hPa ESE 4.0mph /  6.4km/h 4.0mph /  6.4km/h 93% 0.21in /  5.33mm
15:51 58.8 °F /  14.9 °C 57.1 °F /  13.9 °C 29.99in /  1015.5hPa SE 5.0mph /  8km/h 6.0mph /  9.7km/h 94% 0.13in /  3.3mm
15:52 58.8 °F /  14.9 °C 56.8 °F /  13.8 °C 29.99in /  1015.5hPa SE 6.0mph /  9.7km/h 6.0mph /  9.7km/h 93% 0.12in /  3.05mm
15:53 58.8 °F /  14.9 °C 56.8 °F /  13.8 °C 29.99in /  1015.5hPa SE 6.0mph /  9.7km/h 6.0mph /  9.7km/h 93% 0.12in /  3.05mm
15:56 58.8 °F /  14.9 °C 56.8 °F /  13.8 °C 29.99in /  1015.5hPa SE 3.0mph /  4.8km/h 6.0mph /  9.7km/h 93% 0.12in /  3.05mm
15:58 58.8 °F /  14.9 °C 56.8 °F /  13.8 °C 29.99in /  1015.5hPa SE 6.0mph /  9.7km/h 6.0mph /  9.7km/h 93% 0.09in /  2.29mm
15:59 58.8 °F /  14.9 °C 56.8 °F /  13.8 °C 29.99in /  1015.5hPa SE 4.0mph /  6.4km/h 6.0mph /  9.7km/h 93% 0.08in /  2.03mm
16:04 58.8 °F /  14.9 °C 56.8 °F /  13.8 °C 29.98in /  1015.1hPa SE 4.0mph /  6.4km/h 5.0mph /  8km/h 93% 0.08in /  2.03mm
16:05 58.8 °F /  14.9 °C 56.8 °F /  13.8 °C 29.98in /  1015.1hPa ESE 4.0mph /  6.4km/h 5.0mph /  8km/h 93% 0.08in /  2.03mm
16:09 58.7 °F /  14.8 °C 56.7 °F /  13.7 °C 29.98in /  1015.1hPa SE 5.0mph /  8km/h 7.0mph /  11.3km/h 93% 0.06in /  1.52mm
16:11 58.7 °F /  14.8 °C 56.7 °F /  13.7 °C 29.98in /  1015.1hPa SE 4.0mph /  6.4km/h 7.0mph /  11.3km/h 93% 0.05in /  1.27mm
16:14 58.7 °F /  14.8 °C 56.7 °F /  13.7 °C 29.97in /  1014.8hPa SE 6.0mph /  9.7km/h 7.0mph /  11.3km/h 93% 0.05in /  1.27mm
16:16 58.6 °F /  14.8 °C 56.6 °F /  13.7 °C 29.97in /  1014.8hPa East 5.0mph /  8km/h 7.0mph /  11.3km/h 93% 0.05in /  1.27mm
16:20 58.6 °F /  14.8 °C 56.6 °F /  13.7 °C 29.97in /  1014.8hPa ESE 9.0mph /  14.5km/h 9.0mph /  14.5km/h 93% 0.05in /  1.27mm
16:21 58.6 °F /  14.8 °C 56.6 °F /  13.7 °C 29.97in /  1014.8hPa SE 8.0mph /  12.9km/h 9.0mph /  14.5km/h 93% 0.05in /  1.27mm
16:22 58.6 °F /  14.8 °C 56.9 °F /  13.8 °C 29.97in /  1014.8hPa ESE 6.0mph /  9.7km/h 10.0mph /  16.1km/h 94% 0.05in /  1.27mm
16:26 58.5 °F /  14.7 °C 56.8 °F /  13.8 °C 29.97in /  1014.8hPa ESE 7.0mph /  11.3km/h 11.0mph /  17.7km/h 94% 0.04in /  1.02mm
16:27 58.5 °F /  14.7 °C 56.8 °F /  13.8 °C 29.97in /  1014.8hPa SE 7.0mph /  11.3km/h 11.0mph /  17.7km/h 94% 0.04in /  1.02mm
16:28 58.5 °F /  14.7 °C 56.8 °F /  13.8 °C 29.97in /  1014.8hPa SE 6.0mph /  9.7km/h 9.0mph /  14.5km/h 94% 0.04in /  1.02mm
16:31 58.4 °F /  14.7 °C 56.7 °F /  13.7 °C 29.97in /  1014.8hPa ESE 11.0mph /  17.7km/h 11.0mph /  17.7km/h 94% 0.04in /  1.02mm
16:33 58.5 °F /  14.7 °C 56.8 °F /  13.8 °C 29.97in /  1014.8hPa ESE 6.0mph /  9.7km/h 12.0mph /  19.3km/h 94% 0.04in /  1.02mm
16:36 58.4 °F /  14.7 °C 56.7 °F /  13.7 °C 29.97in /  1014.8hPa SE 8.0mph /  12.9km/h 11.0mph /  17.7km/h 94% 0.04in /  1.02mm
16:37 58.4 °F /  14.7 °C 56.7 °F /  13.7 °C 29.97in /  1014.8hPa ESE 8.0mph /  12.9km/h 11.0mph /  17.7km/h 94% 0.04in /  1.02mm
16:38 58.4 °F /  14.7 °C 56.7 °F /  13.7 °C 29.97in /  1014.8hPa SE 9.0mph /  14.5km/h 11.0mph /  17.7km/h 94% 0.04in /  1.02mm
16:41 58.3 °F /  14.6 °C 56.3 °F /  13.5 °C 29.96in /  1014.4hPa ESE 7.0mph /  11.3km/h 14.0mph /  22.5km/h 93% 0.04in /  1.02mm
16:42 58.2 °F /  14.6 °C 56.5 °F /  13.6 °C 29.96in /  1014.4hPa SE 8.0mph /  12.9km/h 14.0mph /  22.5km/h 94% 0.04in /  1.02mm
16:44 58.2 °F /  14.6 °C 56.5 °F /  13.6 °C 29.96in /  1014.4hPa SE 7.0mph /  11.3km/h 11.0mph /  17.7km/h 94% 0.04in /  1.02mm
16:47 58.1 °F /  14.5 °C 56.1 °F /  13.4 °C 29.97in /  1014.8hPa ESE 9.0mph /  14.5km/h 10.0mph /  16.1km/h 93% 0.04in /  1.02mm
16:49 58.1 °F /  14.5 °C 56.1 °F /  13.4 °C 29.96in /  1014.4hPa SE 6.0mph /  9.7km/h 10.0mph /  16.1km/h 93% 0.04in /  1.02mm
16:52 58.0 °F /  14.4 °C 56.0 °F /  13.3 °C 29.96in /  1014.4hPa ESE 10.0mph /  16.1km/h 10.0mph /  16.1km/h 93% 0.04in /  1.02mm
16:55 57.9 °F /  14.4 °C 55.9 °F /  13.3 °C 29.96in /  1014.4hPa SE 9.0mph /  14.5km/h 10.0mph /  16.1km/h 93% 0.04in /  1.02mm
16:58 57.8 °F /  14.3 °C 55.8 °F /  13.2 °C 29.96in /  1014.4hPa ESE 7.0mph /  11.3km/h 12.0mph /  19.3km/h 93% 0.04in /  1.02mm
17:00 57.7 °F /  14.3 °C 55.7 °F /  13.2 °C 29.96in /  1014.4hPa ESE 6.0mph /  9.7km/h 11.0mph /  17.7km/h 93% 0.00in /  0mm
17:01 57.7 °F /  14.3 °C 55.7 °F /  13.2 °C 29.96in /  1014.4hPa ESE 7.0mph /  11.3km/h 11.0mph /  17.7km/h 93% 0.00in /  0mm
17:05 57.6 °F /  14.2 °C 55.6 °F /  13.1 °C 29.97in /  1014.8hPa SE 8.0mph /  12.9km/h 12.0mph /  19.3km/h 93% 0.00in /  0mm
17:06 57.6 °F /  14.2 °C 55.6 °F /  13.1 °C 29.97in /  1014.8hPa SE 11.0mph /  17.7km/h 12.0mph /  19.3km/h 93% 0.00in /  0mm
17:11 57.5 °F /  14.2 °C 55.5 °F /  13.1 °C 29.97in /  1014.8hPa SE 9.0mph /  14.5km/h 13.0mph /  20.9km/h 93% 0.11in /  2.79mm
17:12 57.4 °F /  14.1 °C 55.4 °F /  13 °C 29.97in /  1014.8hPa SE 12.0mph /  19.3km/h 13.0mph /  20.9km/h 93% 0.11in /  2.79mm
17:16 57.4 °F /  14.1 °C 55.1 °F /  12.8 °C 29.97in /  1014.8hPa ESE 9.0mph /  14.5km/h 11.0mph /  17.7km/h 92% 0.12in /  3.05mm
17:17 57.4 °F /  14.1 °C 55.1 °F /  12.8 °C 29.97in /  1014.8hPa SE 7.0mph /  11.3km/h 11.0mph /  17.7km/h 92% 0.12in /  3.05mm
17:21 57.5 °F /  14.2 °C 54.9 °F /  12.7 °C 29.96in /  1014.4hPa ESE 9.0mph /  14.5km/h 14.0mph /  22.5km/h 91% 0.07in /  1.78mm
17:22 57.4 °F /  14.1 °C 54.8 °F /  12.7 °C 29.96in /  1014.4hPa ESE 8.0mph /  12.9km/h 10.0mph /  16.1km/h 91% 0.06in /  1.52mm
17:27 57.4 °F /  14.1 °C 54.8 °F /  12.7 °C 29.97in /  1014.8hPa SE 7.0mph /  11.3km/h 10.0mph /  16.1km/h 91% 0.04in /  1.02mm
17:28 57.4 °F /  14.1 °C 54.8 °F /  12.7 °C 29.97in /  1014.8hPa SE 9.0mph /  14.5km/h 10.0mph /  16.1km/h 91% 0.04in /  1.02mm
17:31 57.4 °F /  14.1 °C 54.8 °F /  12.7 °C 29.97in /  1014.8hPa SE 5.0mph /  8km/h 10.0mph /  16.1km/h 91% 0.04in /  1.02mm
17:32 57.4 °F /  14.1 °C 54.8 °F /  12.7 °C 29.97in /  1014.8hPa SE 6.0mph /  9.7km/h 10.0mph /  16.1km/h 91% 0.04in /  1.02mm
17:33 57.4 °F /  14.1 °C 54.8 °F /  12.7 °C 29.97in /  1014.8hPa SE 9.0mph /  14.5km/h 10.0mph /  16.1km/h 91% 0.04in /  1.02mm
17:34 57.4 °F /  14.1 °C 54.8 °F /  12.7 °C 29.97in /  1014.8hPa SSE 7.0mph /  11.3km/h 10.0mph /  16.1km/h 91% 0.04in /  1.02mm
17:36 57.3 °F /  14.1 °C 54.7 °F /  12.6 °C 29.97in /  1014.8hPa SE 6.0mph /  9.7km/h 10.0mph /  16.1km/h 91% 0.09in /  2.29mm
17:39 57.3 °F /  14.1 °C 55.0 °F /  12.8 °C 29.98in /  1015.1hPa SE 7.0mph /  11.3km/h 9.0mph /  14.5km/h 92% 0.09in /  2.29mm
17:41 57.2 °F /  14 °C 54.9 °F /  12.7 °C 29.98in /  1015.1hPa SW 4.0mph /  6.4km/h 8.0mph /  12.9km/h 92% 0.09in /  2.29mm
17:44 57.2 °F /  14 °C 54.9 °F /  12.7 °C 29.99in /  1015.5hPa SSE 5.0mph /  8km/h 8.0mph /  12.9km/h 92% 0.06in /  1.52mm
17:46 57.1 °F /  13.9 °C 55.1 °F /  12.8 °C 29.99in /  1015.5hPa South 5.0mph /  8km/h 7.0mph /  11.3km/h 93% 0.05in /  1.27mm
17:49 57.0 °F /  13.9 °C 55.0 °F /  12.8 °C 29.99in /  1015.5hPa South 5.0mph /  8km/h 9.0mph /  14.5km/h 93% 0.04in /  1.02mm
17:50 57.0 °F /  13.9 °C 55.0 °F /  12.8 °C 29.99in /  1015.5hPa SSW 5.0mph /  8km/h 9.0mph /  14.5km/h 93% 0.04in /  1.02mm
17:51 57.0 °F /  13.9 °C 55.0 °F /  12.8 °C 30.00in /  1015.8hPa SSE 5.0mph /  8km/h 8.0mph /  12.9km/h 93% 0.04in /  1.02mm
17:54 57.0 °F /  13.9 °C 55.0 °F /  12.8 °C 29.99in /  1015.5hPa SSE 6.0mph /  9.7km/h 9.0mph /  14.5km/h 93% 0.00in /  0mm
17:55 57.0 °F /  13.9 °C 55.0 °F /  12.8 °C 29.99in /  1015.5hPa SSE 7.0mph /  11.3km/h 9.0mph /  14.5km/h 93% 0.00in /  0mm
17:56 56.9 °F /  13.8 °C 54.9 °F /  12.7 °C 29.99in /  1015.5hPa SSE 7.0mph /  11.3km/h 9.0mph /  14.5km/h 93% 0.00in /  0mm
17:57 56.9 °F /  13.8 °C 55.2 °F /  12.9 °C 29.99in /  1015.5hPa SE 6.0mph /  9.7km/h 9.0mph /  14.5km/h 94% 0.00in /  0mm
17:58 56.9 °F /  13.8 °C 55.2 °F /  12.9 °C 29.99in /  1015.5hPa SE 7.0mph /  11.3km/h 9.0mph /  14.5km/h 94% 0.00in /  0mm
18:00 56.8 °F /  13.8 °C 55.1 °F /  12.8 °C 29.98in /  1015.1hPa SSE 9.0mph /  14.5km/h 12.0mph /  19.3km/h 94% 0.00in /  0mm
18:01 56.8 °F /  13.8 °C 55.1 °F /  12.8 °C 29.98in /  1015.1hPa SSE 8.0mph /  12.9km/h 12.0mph /  19.3km/h 94% 0.00in /  0mm
18:03 56.8 °F /  13.8 °C 55.1 °F /  12.8 °C 29.98in /  1015.1hPa SE 10.0mph /  16.1km/h 12.0mph /  19.3km/h 94% 0.00in /  0mm
18:05 56.8 °F /  13.8 °C 55.1 °F /  12.8 °C 29.99in /  1015.5hPa SE 10.0mph /  16.1km/h 15.0mph /  24.1km/h 94% 0.05in /  1.27mm
18:07 56.7 °F /  13.7 °C 55.0 °F /  12.8 °C 29.98in /  1015.1hPa SE 8.0mph /  12.9km/h 15.0mph /  24.1km/h 94% 0.05in /  1.27mm
18:10 56.7 °F /  13.7 °C 55.0 °F /  12.8 °C 29.99in /  1015.5hPa SSE 10.0mph /  16.1km/h 13.0mph /  20.9km/h 94% 0.05in /  1.27mm
18:12 56.6 °F /  13.7 °C 54.9 °F /  12.7 °C 29.98in /  1015.1hPa SE 9.0mph /  14.5km/h 10.0mph /  16.1km/h 94% 0.05in /  1.27mm
18:15 56.6 °F /  13.7 °C 54.9 °F /  12.7 °C 29.98in /  1015.1hPa SE 12.0mph /  19.3km/h 12.0mph /  19.3km/h 94% 0.05in /  1.27mm
18:17 56.6 °F /  13.7 °C 54.6 °F /  12.6 °C 29.98in /  1015.1hPa SE 8.0mph /  12.9km/h 12.0mph /  19.3km/h 93% 0.05in /  1.27mm
18:21 56.5 °F /  13.6 °C 54.5 °F /  12.5 °C 29.98in /  1015.1hPa ESE 15.0mph /  24.1km/h 15.0mph /  24.1km/h 93% 0.05in /  1.27mm
18:22 56.4 °F /  13.6 °C 54.4 °F /  12.4 °C 29.98in /  1015.1hPa SSE 10.0mph /  16.1km/h 15.0mph /  24.1km/h 93% 0.05in /  1.27mm
18:27 56.2 °F /  13.4 °C 54.2 °F /  12.3 °C 29.98in /  1015.1hPa SE 9.0mph /  14.5km/h 14.0mph /  22.5km/h 93% 0.07in /  1.78mm
18:29 56.2 °F /  13.4 °C 54.2 °F /  12.3 °C 29.98in /  1015.1hPa ESE 10.0mph /  16.1km/h 13.0mph /  20.9km/h 93% 0.07in /  1.78mm
18:30 56.1 °F /  13.4 °C 54.1 °F /  12.3 °C 29.98in /  1015.1hPa SE 12.0mph /  19.3km/h 13.0mph /  20.9km/h 93% 0.07in /  1.78mm
18:32 56.0 °F /  13.3 °C 54.0 °F /  12.2 °C 29.97in /  1014.8hPa SE 9.0mph /  14.5km/h 20.0mph /  32.2km/h 93% 0.07in /  1.78mm
18:36 55.9 °F /  13.3 °C 53.9 °F /  12.2 °C 29.96in /  1014.4hPa ESE 13.0mph /  20.9km/h 15.0mph /  24.1km/h 93% 0.06in /  1.52mm
18:38 55.8 °F /  13.2 °C 53.8 °F /  12.1 °C 29.96in /  1014.4hPa SE 11.0mph /  17.7km/h 15.0mph /  24.1km/h 93% 0.05in /  1.27mm
18:42 55.7 °F /  13.2 °C 53.7 °F /  12.1 °C 29.97in /  1014.8hPa SE 13.0mph /  20.9km/h 15.0mph /  24.1km/h 93% 0.04in /  1.02mm
18:43 55.7 °F /  13.2 °C 53.7 °F /  12.1 °C 29.97in /  1014.8hPa SE 13.0mph /  20.9km/h 14.0mph /  22.5km/h 93% 0.04in /  1.02mm
18:47 55.7 °F /  13.2 °C 53.7 °F /  12.1 °C 29.96in /  1014.4hPa ESE 11.0mph /  17.7km/h 21.0mph /  33.8km/h 93% 0.04in /  1.02mm
18:52 55.8 °F /  13.2 °C 53.5 °F /  11.9 °C 29.95in /  1014.1hPa ESE 15.0mph /  24.1km/h 21.0mph /  33.8km/h 92% 0.06in /  1.52mm
18:53 55.8 °F /  13.2 °C 53.5 °F /  11.9 °C 29.95in /  1014.1hPa SE 15.0mph /  24.1km/h 21.0mph /  33.8km/h 92% 0.06in /  1.52mm
18:57 55.7 °F /  13.2 °C 53.4 °F /  11.9 °C 29.94in /  1013.8hPa SE 13.0mph /  20.9km/h 20.0mph /  32.2km/h 92% 0.06in /  1.52mm
18:58 55.7 °F /  13.2 °C 53.4 °F /  11.9 °C 29.94in /  1013.8hPa ESE 11.0mph /  17.7km/h 20.0mph /  32.2km/h 92% 0.06in /  1.52mm
19:03 55.6 °F /  13.1 °C 53.6 °F /  12 °C 29.95in /  1014.1hPa SE 14.0mph /  22.5km/h 17.0mph /  27.4km/h 93% 0.05in /  1.27mm
19:08 55.6 °F /  13.1 °C 53.3 °F /  11.8 °C 29.96in /  1014.4hPa SE 10.0mph /  16.1km/h 16.0mph /  25.7km/h 92% 0.00in /  0mm
19:10 55.6 °F /  13.1 °C 53.3 °F /  11.8 °C 29.97in /  1014.8hPa SSW 4.0mph /  6.4km/h 16.0mph /  25.7km/h 92% 0.00in /  0mm
19:14 55.5 °F /  13.1 °C 53.5 °F /  11.9 °C 29.94in /  1013.8hPa ESE 10.0mph /  16.1km/h 12.0mph /  19.3km/h 93% 0.00in /  0mm
19:19 55.5 °F /  13.1 °C 53.5 °F /  11.9 °C 29.96in /  1014.4hPa ESE 11.0mph /  17.7km/h 14.0mph /  22.5km/h 93% 0.00in /  0mm
19:24 55.5 °F /  13.1 °C 53.5 °F /  11.9 °C 29.98in /  1015.1hPa SSE 10.0mph /  16.1km/h 10.0mph /  16.1km/h 93% 0.00in /  0mm
19:29 55.5 °F /  13.1 °C 53.2 °F /  11.8 °C 29.95in /  1014.1hPa SE 10.0mph /  16.1km/h 15.0mph /  24.1km/h 92% 0.00in /  0mm
19:30 55.5 °F /  13.1 °C 53.5 °F /  11.9 °C 29.95in /  1014.1hPa SE 5.0mph /  8km/h 15.0mph /  24.1km/h 93% 0.00in /  0mm
19:33 55.4 °F /  13 °C 53.4 °F /  11.9 °C 29.97in /  1014.8hPa SE 3.0mph /  4.8km/h 8.0mph /  12.9km/h 93% 0.00in /  0mm
19:34 55.4 °F /  13 °C 53.4 °F /  11.9 °C 29.97in /  1014.8hPa SSE 6.0mph /  9.7km/h 7.0mph /  11.3km/h 93% 0.00in /  0mm
19:35 55.4 °F /  13 °C 53.4 °F /  11.9 °C 29.97in /  1014.8hPa ESE 4.0mph /  6.4km/h 7.0mph /  11.3km/h 93% 0.00in /  0mm
19:36 55.4 °F /  13 °C 53.4 °F /  11.9 °C 29.97in /  1014.8hPa ESE 7.0mph /  11.3km/h 9.0mph /  14.5km/h 93% 0.00in /  0mm
19:39 55.5 °F /  13.1 °C 53.2 °F /  11.8 °C 29.98in /  1015.1hPa SSW 5.0mph /  8km/h 9.0mph /  14.5km/h 92% 0.00in /  0mm
19:41 55.5 °F /  13.1 °C 53.2 °F /  11.8 °C 29.99in /  1015.5hPa South 6.0mph /  9.7km/h 9.0mph /  14.5km/h 92% 0.00in /  0mm
19:42 55.5 °F /  13.1 °C 53.2 °F /  11.8 °C 29.98in /  1015.1hPa SE 7.0mph /  11.3km/h 9.0mph /  14.5km/h 92% 0.00in /  0mm
19:45 55.5 °F /  13.1 °C 53.2 °F /  11.8 °C 29.96in /  1014.4hPa ESE 8.0mph /  12.9km/h 12.0mph /  19.3km/h 92% 0.00in /  0mm
19:46 55.5 °F /  13.1 °C 53.2 °F /  11.8 °C 29.96in /  1014.4hPa SE 6.0mph /  9.7km/h 12.0mph /  19.3km/h 92% 0.00in /  0mm
19:50 55.5 °F /  13.1 °C 53.2 °F /  11.8 °C 29.99in /  1015.5hPa SSW 6.0mph /  9.7km/h 7.0mph /  11.3km/h 92% 0.00in /  0mm
19:51 55.5 °F /  13.1 °C 53.2 °F /  11.8 °C 29.99in /  1015.5hPa SSE 10.0mph /  16.1km/h 10.0mph /  16.1km/h 92% 0.00in /  0mm
19:54 55.7 °F /  13.2 °C 53.1 °F /  11.7 °C 29.97in /  1014.8hPa South 9.0mph /  14.5km/h 19.0mph /  30.6km/h 91% 0.00in /  0mm
19:55 55.9 °F /  13.3 °C 53.0 °F /  11.7 °C 29.99in /  1015.5hPa SE 12.0mph /  19.3km/h 14.0mph /  22.5km/h 90% 0.00in /  0mm
19:56 55.9 °F /  13.3 °C 53.0 °F /  11.7 °C 29.99in /  1015.5hPa SE 9.0mph /  14.5km/h 13.0mph /  20.9km/h 90% 0.00in /  0mm
19:57 55.9 °F /  13.3 °C 53.0 °F /  11.7 °C 29.98in /  1015.1hPa SE 7.0mph /  11.3km/h 13.0mph /  20.9km/h 90% 0.00in /  0mm
19:59 55.9 °F /  13.3 °C 53.0 °F /  11.7 °C 29.99in /  1015.5hPa SE 9.0mph /  14.5km/h 13.0mph /  20.9km/h 90% 0.00in /  0mm
20:01 55.9 °F /  13.3 °C 53.0 °F /  11.7 °C 29.99in /  1015.5hPa SSE 10.0mph /  16.1km/h 13.0mph /  20.9km/h 90% 0.00in /  0mm
20:05 55.8 °F /  13.2 °C 53.2 °F /  11.8 °C 29.99in /  1015.5hPa SE 8.0mph /  12.9km/h 12.0mph /  19.3km/h 91% 0.00in /  0mm
20:06 55.8 °F /  13.2 °C 53.2 °F /  11.8 °C 29.99in /  1015.5hPa SE 6.0mph /  9.7km/h 10.0mph /  16.1km/h 91% 0.00in /  0mm
20:07 55.8 °F /  13.2 °C 53.2 °F /  11.8 °C 29.99in /  1015.5hPa SSE 8.0mph /  12.9km/h 10.0mph /  16.1km/h 91% 0.00in /  0mm
20:11 55.7 °F /  13.2 °C 53.1 °F /  11.7 °C 29.99in /  1015.5hPa SE 6.0mph /  9.7km/h 8.0mph /  12.9km/h 91% 0.00in /  0mm
20:12 55.7 °F /  13.2 °C 53.1 °F /  11.7 °C 29.99in /  1015.5hPa SE 7.0mph /  11.3km/h 10.0mph /  16.1km/h 91% 0.00in /  0mm
20:16 55.6 °F /  13.1 °C 53.0 °F /  11.7 °C 29.99in /  1015.5hPa SE 5.0mph /  8km/h 6.0mph /  9.7km/h 91% 0.00in /  0mm
20:17 55.6 °F /  13.1 °C 53.0 °F /  11.7 °C 29.99in /  1015.5hPa SSE 4.0mph /  6.4km/h 6.0mph /  9.7km/h 91% 0.00in /  0mm
20:22 55.4 °F /  13 °C 53.1 °F /  11.7 °C 29.99in /  1015.5hPa SE 6.0mph /  9.7km/h 6.0mph /  9.7km/h 92% 0.00in /  0mm
20:23 55.4 °F /  13 °C 53.1 °F /  11.7 °C 30.00in /  1015.8hPa SSE 6.0mph /  9.7km/h 6.0mph /  9.7km/h 92% 0.00in /  0mm
20:28 55.3 °F /  12.9 °C 53.0 °F /  11.7 °C 30.00in /  1015.8hPa South 8.0mph /  12.9km/h 10.0mph /  16.1km/h 92% 0.00in /  0mm
20:29 55.4 °F /  13 °C 53.1 °F /  11.7 °C 30.00in /  1015.8hPa SE 8.0mph /  12.9km/h 10.0mph /  16.1km/h 92% 0.00in /  0mm
20:30 55.4 °F /  13 °C 53.1 °F /  11.7 °C 30.00in /  1015.8hPa SSE 10.0mph /  16.1km/h 12.0mph /  19.3km/h 92% 0.00in /  0mm
20:34 55.5 °F /  13.1 °C 52.9 °F /  11.6 °C 30.00in /  1015.8hPa SE 5.0mph /  8km/h 10.0mph /  16.1km/h 91% 0.00in /  0mm
20:35 55.5 °F /  13.1 °C 52.9 °F /  11.6 °C 30.00in /  1015.8hPa SE 7.0mph /  11.3km/h 9.0mph /  14.5km/h 91% 0.00in /  0mm
20:36 55.5 °F /  13.1 °C 52.9 °F /  11.6 °C 30.00in /  1015.8hPa SE 7.0mph /  11.3km/h 9.0mph /  14.5km/h 91% 0.00in /  0mm
20:39 55.4 °F /  13 °C 53.1 °F /  11.7 °C 30.00in /  1015.8hPa SE 5.0mph /  8km/h 7.0mph /  11.3km/h 92% 0.00in /  0mm
20:41 55.4 °F /  13 °C 53.1 °F /  11.7 °C 30.00in /  1015.8hPa SSE 7.0mph /  11.3km/h 7.0mph /  11.3km/h 92% 0.00in /  0mm
20:46 55.3 °F /  12.9 °C 53.0 °F /  11.7 °C 30.00in /  1015.8hPa SE 6.0mph /  9.7km/h 7.0mph /  11.3km/h 92% 0.00in /  0mm
20:51 55.2 °F /  12.9 °C 52.9 °F /  11.6 °C 30.00in /  1015.8hPa SE 9.0mph /  14.5km/h 9.0mph /  14.5km/h 92% 0.00in /  0mm
20:56 55.1 °F /  12.8 °C 53.1 °F /  11.7 °C 30.00in /  1015.8hPa SSE 5.0mph /  8km/h 8.0mph /  12.9km/h 93% 0.00in /  0mm
20:57 55.1 °F /  12.8 °C 53.1 °F /  11.7 °C 30.00in /  1015.8hPa SE 5.0mph /  8km/h 8.0mph /  12.9km/h 93% 0.00in /  0mm
21:02 55.0 °F /  12.8 °C 53.0 °F /  11.7 °C 30.00in /  1015.8hPa SE 5.0mph /  8km/h 9.0mph /  14.5km/h 93% 0.00in /  0mm
21:03 55.0 °F /  12.8 °C 53.0 °F /  11.7 °C 30.01in /  1016.1hPa SE 5.0mph /  8km/h 9.0mph /  14.5km/h 93% 0.00in /  0mm
21:07 54.9 °F /  12.7 °C 52.9 °F /  11.6 °C 30.00in /  1015.8hPa SE 5.0mph /  8km/h 9.0mph /  14.5km/h 93% 0.00in /  0mm
21:09 54.9 °F /  12.7 °C 52.9 °F /  11.6 °C 30.00in /  1015.8hPa SE 7.0mph /  11.3km/h 9.0mph /  14.5km/h 93% 0.04in /  1.02mm
21:12 54.9 °F /  12.7 °C 52.9 °F /  11.6 °C 30.00in /  1015.8hPa SE 5.0mph /  8km/h 9.0mph /  14.5km/h 93% 0.04in /  1.02mm
21:14 54.9 °F /  12.7 °C 52.9 °F /  11.6 °C 30.00in /  1015.8hPa South 5.0mph /  8km/h 9.0mph /  14.5km/h 93% 0.04in /  1.02mm
21:17 54.9 °F /  12.7 °C 52.9 °F /  11.6 °C 30.00in /  1015.8hPa SE 7.0mph /  11.3km/h 7.0mph /  11.3km/h 93% 0.04in /  1.02mm
21:18 54.9 °F /  12.7 °C 52.9 °F /  11.6 °C 30.00in /  1015.8hPa SE 8.0mph /  12.9km/h 8.0mph /  12.9km/h 93% 0.04in /  1.02mm
21:23 54.9 °F /  12.7 °C 53.2 °F /  11.8 °C 30.00in /  1015.8hPa SE 4.0mph /  6.4km/h 9.0mph /  14.5km/h 94% 0.04in /  1.02mm
21:28 54.8 °F /  12.7 °C 53.1 °F /  11.7 °C 30.01in /  1016.1hPa SE 4.0mph /  6.4km/h 8.0mph /  12.9km/h 94% 0.00in /  0mm
21:29 54.8 °F /  12.7 °C 53.1 °F /  11.7 °C 30.01in /  1016.1hPa SSE 5.0mph /  8km/h 8.0mph /  12.9km/h 94% 0.00in /  0mm
21:34 54.7 °F /  12.6 °C 53.0 °F /  11.7 °C 30.01in /  1016.1hPa SE 5.0mph /  8km/h 7.0mph /  11.3km/h 94% 0.00in /  0mm
21:35 54.7 °F /  12.6 °C 53.0 °F /  11.7 °C 30.01in /  1016.1hPa SE 6.0mph /  9.7km/h 7.0mph /  11.3km/h 94% 0.00in /  0mm
21:39 54.7 °F /  12.6 °C 53.0 °F /  11.7 °C 30.01in /  1016.1hPa SSE 6.0mph /  9.7km/h 7.0mph /  11.3km/h 94% 0.00in /  0mm
21:40 54.7 °F /  12.6 °C 53.0 °F /  11.7 °C 30.01in /  1016.1hPa SE 5.0mph /  8km/h 6.0mph /  9.7km/h 94% 0.00in /  0mm
21:45 54.7 °F /  12.6 °C 53.0 °F /  11.7 °C 30.01in /  1016.1hPa SE 5.0mph /  8km/h 9.0mph /  14.5km/h 94% 0.00in /  0mm
21:46 54.7 °F /  12.6 °C 53.0 °F /  11.7 °C 30.01in /  1016.1hPa SSE 7.0mph /  11.3km/h 9.0mph /  14.5km/h 94% 0.00in /  0mm
21:48 54.7 °F /  12.6 °C 53.0 °F /  11.7 °C 30.01in /  1016.1hPa SSE 6.0mph /  9.7km/h 7.0mph /  11.3km/h 94% 0.00in /  0mm
21:51 54.7 °F /  12.6 °C 53.0 °F /  11.7 °C 30.01in /  1016.1hPa SSE 8.0mph /  12.9km/h 12.0mph /  19.3km/h 94% 0.00in /  0mm
21:53 54.7 °F /  12.6 °C 53.0 °F /  11.7 °C 30.01in /  1016.1hPa SE 6.0mph /  9.7km/h 12.0mph /  19.3km/h 94% 0.00in /  0mm
21:56 54.7 °F /  12.6 °C 53.0 °F /  11.7 °C 30.01in /  1016.1hPa SE 6.0mph /  9.7km/h 10.0mph /  16.1km/h 94% 0.00in /  0mm
21:57 54.7 °F /  12.6 °C 53.0 °F /  11.7 °C 30.01in /  1016.1hPa SSE 5.0mph /  8km/h 8.0mph /  12.9km/h 94% 0.00in /  0mm
21:59 54.7 °F /  12.6 °C 53.0 °F /  11.7 °C 30.01in /  1016.1hPa SE 7.0mph /  11.3km/h 8.0mph /  12.9km/h 94% 0.00in /  0mm
22:03 54.7 °F /  12.6 °C 53.0 °F /  11.7 °C 30.02in /  1016.5hPa SSE 7.0mph /  11.3km/h 9.0mph /  14.5km/h 94% 0.00in /  0mm
22:04 54.7 °F /  12.6 °C 53.0 °F /  11.7 °C 30.02in /  1016.5hPa ESE 4.0mph /  6.4km/h 9.0mph /  14.5km/h 94% 0.00in /  0mm
22:08 54.7 °F /  12.6 °C 53.0 °F /  11.7 °C 30.02in /  1016.5hPa SE 8.0mph /  12.9km/h 12.0mph /  19.3km/h 94% 0.00in /  0mm
22:09 54.7 °F /  12.6 °C 53.0 °F /  11.7 °C 30.02in /  1016.5hPa SE 10.0mph /  16.1km/h 12.0mph /  19.3km/h 94% 0.00in /  0mm
22:14 54.7 °F /  12.6 °C 53.0 °F /  11.7 °C 30.01in /  1016.1hPa SE 7.0mph /  11.3km/h 11.0mph /  17.7km/h 94% 0.00in /  0mm
22:19 54.7 °F /  12.6 °C 53.0 °F /  11.7 °C 30.01in /  1016.1hPa ESE 7.0mph /  11.3km/h 10.0mph /  16.1km/h 94% 0.00in /  0mm
22:20 54.7 °F /  12.6 °C 53.0 °F /  11.7 °C 30.01in /  1016.1hPa SE 5.0mph /  8km/h 10.0mph /  16.1km/h 94% 0.00in /  0mm
22:24 54.7 °F /  12.6 °C 53.3 °F /  11.8 °C 30.02in /  1016.5hPa SE 6.0mph /  9.7km/h 9.0mph /  14.5km/h 95% 0.00in /  0mm
22:25 54.6 °F /  12.6 °C 53.2 °F /  11.8 °C 30.02in /  1016.5hPa SE 8.0mph /  12.9km/h 9.0mph /  14.5km/h 95% 0.00in /  0mm
22:27 54.6 °F /  12.6 °C 53.2 °F /  11.8 °C 30.02in /  1016.5hPa SE 6.0mph /  9.7km/h 9.0mph /  14.5km/h 95% 0.00in /  0mm
22:29 54.6 °F /  12.6 °C 53.2 °F /  11.8 °C 30.02in /  1016.5hPa ESE 6.0mph /  9.7km/h 10.0mph /  16.1km/h 95% 0.00in /  0mm
22:31 54.6 °F /  12.6 °C 53.2 °F /  11.8 °C 30.02in /  1016.5hPa SE 7.0mph /  11.3km/h 10.0mph /  16.1km/h 95% 0.00in /  0mm
22:32 54.6 °F /  12.6 °C 53.2 °F /  11.8 °C 30.02in /  1016.5hPa SE 6.0mph /  9.7km/h 10.0mph /  16.1km/h 95% 0.00in /  0mm
22:33 54.6 °F /  12.6 °C 53.2 °F /  11.8 °C 30.02in /  1016.5hPa SE 8.0mph /  12.9km/h 9.0mph /  14.5km/h 95% 0.00in /  0mm
22:34 54.6 °F /  12.6 °C 53.2 °F /  11.8 °C 30.02in /  1016.5hPa SE 8.0mph /  12.9km/h 9.0mph /  14.5km/h 95% 0.00in /  0mm
22:35 54.6 °F /  12.6 °C 53.2 °F /  11.8 °C 30.02in /  1016.5hPa SSE 8.0mph /  12.9km/h 9.0mph /  14.5km/h 95% 0.00in /  0mm
22:38 54.6 °F /  12.6 °C 53.2 °F /  11.8 °C 30.02in /  1016.5hPa SE 7.0mph /  11.3km/h 10.0mph /  16.1km/h 95% 0.00in /  0mm
22:40 54.6 °F /  12.6 °C 53.2 °F /  11.8 °C 30.02in /  1016.5hPa SE 6.0mph /  9.7km/h 9.0mph /  14.5km/h 95% 0.00in /  0mm
22:43 54.5 °F /  12.5 °C 53.1 °F /  11.7 °C 30.02in /  1016.5hPa SSE 7.0mph /  11.3km/h 8.0mph /  12.9km/h 95% 0.00in /  0mm
22:45 54.5 °F /  12.5 °C 53.1 °F /  11.7 °C 30.02in /  1016.5hPa SSE 8.0mph /  12.9km/h 9.0mph /  14.5km/h 95% 0.00in /  0mm
22:48 54.5 °F /  12.5 °C 53.1 °F /  11.7 °C 30.02in /  1016.5hPa ESE 7.0mph /  11.3km/h 11.0mph /  17.7km/h 95% 0.00in /  0mm
22:50 54.5 °F /  12.5 °C 53.1 °F /  11.7 °C 30.02in /  1016.5hPa SSE 6.0mph /  9.7km/h 8.0mph /  12.9km/h 95% 0.00in /  0mm
22:51 54.5 °F /  12.5 °C 53.1 °F /  11.7 °C 30.02in /  1016.5hPa SE 5.0mph /  8km/h 8.0mph /  12.9km/h 95% 0.00in /  0mm
22:56 54.4 °F /  12.4 °C 53.0 °F /  11.7 °C 30.02in /  1016.5hPa SE 7.0mph /  11.3km/h 9.0mph /  14.5km/h 95% 0.00in /  0mm
22:57 54.3 °F /  12.4 °C 53.2 °F /  11.8 °C 30.02in /  1016.5hPa SE 7.0mph /  11.3km/h 10.0mph /  16.1km/h 96% 0.00in /  0mm
23:01 54.3 °F /  12.4 °C 53.2 °F /  11.8 °C 30.02in /  1016.5hPa SE 8.0mph /  12.9km/h 11.0mph /  17.7km/h 96% 0.00in /  0mm
23:02 54.3 °F /  12.4 °C 53.2 °F /  11.8 °C 30.02in /  1016.5hPa ESE 8.0mph /  12.9km/h 11.0mph /  17.7km/h 96% 0.00in /  0mm
23:06 54.3 °F /  12.4 °C 53.2 °F /  11.8 °C 30.02in /  1016.5hPa SE 8.0mph /  12.9km/h 10.0mph /  16.1km/h 96% 0.00in /  0mm
23:07 54.3 °F /  12.4 °C 53.2 °F /  11.8 °C 30.02in /  1016.5hPa ESE 8.0mph /  12.9km/h 10.0mph /  16.1km/h 96% 0.00in /  0mm
23:12 54.3 °F /  12.4 °C 53.2 °F /  11.8 °C 30.02in /  1016.5hPa SE 6.0mph /  9.7km/h 9.0mph /  14.5km/h 96% 0.00in /  0mm
23:17 54.2 °F /  12.3 °C 53.1 °F /  11.7 °C 30.02in /  1016.5hPa SSE 4.0mph /  6.4km/h 7.0mph /  11.3km/h 96% 0.00in /  0mm
23:19 54.2 °F /  12.3 °C 53.1 °F /  11.7 °C 30.02in /  1016.5hPa SE 5.0mph /  8km/h 7.0mph /  11.3km/h 96% 0.00in /  0mm
23:22 54.2 °F /  12.3 °C 53.1 °F /  11.7 °C 30.02in /  1016.5hPa ESE 8.0mph /  12.9km/h 8.0mph /  12.9km/h 96% 0.00in /  0mm
23:26 54.2 °F /  12.3 °C 53.1 °F /  11.7 °C 30.02in /  1016.5hPa SE 7.0mph /  11.3km/h 11.0mph /  17.7km/h 96% 0.00in /  0mm
23:27 54.2 °F /  12.3 °C 53.1 °F /  11.7 °C 30.02in /  1016.5hPa SE 8.0mph /  12.9km/h 11.0mph /  17.7km/h 96% 0.00in /  0mm
23:29 54.2 °F /  12.3 °C 53.1 °F /  11.7 °C 30.02in /  1016.5hPa ESE 5.0mph /  8km/h 10.0mph /  16.1km/h 96% 0.00in /  0mm
23:32 54.2 °F /  12.3 °C 53.1 °F /  11.7 °C 30.02in /  1016.5hPa SSE 6.0mph /  9.7km/h 9.0mph /  14.5km/h 96% 0.00in /  0mm
23:33 54.2 °F /  12.3 °C 53.1 °F /  11.7 °C 30.02in /  1016.5hPa SSE 7.0mph /  11.3km/h 9.0mph /  14.5km/h 96% 0.00in /  0mm
23:34 54.2 °F /  12.3 °C 53.1 °F /  11.7 °C 30.02in /  1016.5hPa SSE 7.0mph /  11.3km/h 9.0mph /  14.5km/h 96% 0.00in /  0mm
23:36 54.2 °F /  12.3 °C 53.1 °F /  11.7 °C 30.02in /  1016.5hPa SSE 8.0mph /  12.9km/h 9.0mph /  14.5km/h 96% 0.00in /  0mm
23:37 54.2 °F /  12.3 °C 53.1 °F /  11.7 °C 30.02in /  1016.5hPa SE 7.0mph /  11.3km/h 9.0mph /  14.5km/h 96% 0.00in /  0mm
23:38 54.2 °F /  12.3 °C 53.1 °F /  11.7 °C 30.02in /  1016.5hPa SE 6.0mph /  9.7km/h 9.0mph /  14.5km/h 96% 0.00in /  0mm
23:41 54.2 °F /  12.3 °C 53.1 °F /  11.7 °C 30.02in /  1016.5hPa ESE 7.0mph /  11.3km/h 9.0mph /  14.5km/h 96% 0.00in /  0mm
23:44 54.2 °F /  12.3 °C 53.1 °F /  11.7 °C 30.02in /  1016.5hPa SSE 5.0mph /  8km/h 7.0mph /  11.3km/h 96% 0.00in /  0mm
23:46 54.2 °F /  12.3 °C 53.1 °F /  11.7 °C 30.02in /  1016.5hPa SE 5.0mph /  8km/h 7.0mph /  11.3km/h 96% 0.00in /  0mm
23:51 54.2 °F /  12.3 °C 53.1 °F /  11.7 °C 30.02in /  1016.5hPa SE 6.0mph /  9.7km/h 6.0mph /  9.7km/h 96% 0.00in /  0mm
23:55 54.3 °F /  12.4 °C 53.2 °F /  11.8 °C 30.02in /  1016.5hPa SE 6.0mph /  9.7km/h 9.0mph /  14.5km/h 96% 0.00in /  0mm
23:57 54.3 °F /  12.4 °C 53.2 °F /  11.8 °C 30.02in /  1016.5hPa ESE 8.0mph /  12.9km/h 9.0mph /  14.5km/h 96% 0.00in /  0mm
Compliments of Weather Underground